M I D A S
Marine Information and Data Acquisition System
Tripno 2256 of the Zeeleeuw from 2012-01-18 07:40:16 to 2012-01-18 16:54:26
Back to CruiseResearch ActivitiesStationsMapUnderway DataData graphs

EquipmentUnitsComment
TimeDGPSUTC
LatitudeDGPSDM.mWGS84
LongitudeDGPSDM.mWGS84
TemperatureSBE03/SBE38deg celciusITS90
ConductivitySBE21S/mITS90
SalinitySBE21 Practical Salinity Units
ChlorophylAChelsea fluorimeterg/lCalibrated in Aceton
Missing or incorrect values are displayed as -999
Sea surface data collected by the RV Zeeleeuw from 2012-01-18 07:39:57 to 2012-01-18 17:03:28
                                                                                    Next 1000 lines
Time Latitude Longitude Temperature Conductivity Salinity ChlorophylA
2012-01-18 07:40:07 51°13.634 2°56.018 13.5366 2.211007 16.19853 -2.458615
2012-01-18 07:40:12 51°13.634 2°56.018 13.4909 2.22412 16.303574 -2.458615
2012-01-18 07:40:16 51°13.634 2°56.018 13.3453 2.192731 16.052254 -2.458615
2012-01-18 07:40:21 51°13.635 2°56.016 13.2277 2.192731 16.052254 -2.458615
2012-01-18 07:40:27 51°13.635 2°56.013 13.2891 2.242294 16.449272 -2.458615
2012-01-18 07:40:32 51°13.636 2°56.008 13.4095 2.241262 16.440657 -2.458615
2012-01-18 07:40:37 51°13.638 2°56.002 13.3771 2.627199 19.566638 -2.458615
2012-01-18 07:40:42 51°13.639 2°55.996 13.3324 2.618002 19.491065 -2.458615
2012-01-18 07:40:47 51°13.641 2°55.989 13.4799 2.625339 19.551035 -2.458615
2012-01-18 07:40:53 51°13.643 2°55.979 13.4828 2.625339 19.551035 -2.458615
2012-01-18 07:40:57 51°13.644 2°55.971 13.5014 2.623582 19.537069 -2.458615
2012-01-18 07:41:02 51°13.645 2°55.962 13.4995 2.615935 19.474571 -2.458615
2012-01-18 07:41:07 51°13.647 2°55.953 13.5066 2.615315 19.469504 -2.458615
2012-01-18 07:41:13 51°13.649 2°55.942 13.5398 2.606635 19.398984 -2.458615
2012-01-18 07:41:18 51°13.651 2°55.934 13.4983 2.605601 19.390543 -2.458615
2012-01-18 07:41:22 51°13.653 2°55.927 13.4989 2.605601 19.390543 -2.458615
2012-01-18 07:41:28 51°13.655 2°55.916 13.4924 2.601054 19.353803 -2.458615
2012-01-18 07:41:33 51°13.657 2°55.908 13.5023 2.605911 19.39386 -2.458615
2012-01-18 07:41:37 51°13.658 2°55.901 13.5063 2.608185 19.412823 -2.458615
2012-01-18 07:41:42 51°13.661 2°55.892 13.5086 2.606635 19.400554 -2.458615
2012-01-18 07:41:47 51°13.663 2°55.884 13.5096 2.605498 19.391661 -2.458615
2012-01-18 07:41:53 51°13.667 2°55.874 13.4953 2.605498 19.391661 -2.458615
2012-01-18 07:41:58 51°13.669 2°55.866 13.5033 2.603225 19.373485 -2.458615
2012-01-18 07:42:03 51°13.672 2°55.858 13.529 2.608288 19.415239 -2.458615
2012-01-18 07:42:07 51°13.675 2°55.851 13.4879 2.600331 19.350638 -2.458615
2012-01-18 07:42:13 51°13.678 2°55.841 13.5242 2.606738 19.402969 -2.458615
2012-01-18 07:42:18 51°13.681 2°55.832 13.5189 2.607771 19.411804 -2.458615
2012-01-18 07:42:23 51°13.685 2°55.823 13.5262 2.607771 19.411804 -2.458615
2012-01-18 07:42:27 51°13.688 2°55.817 13.4945 2.608908 19.421484 -2.458615
2012-01-18 07:42:32 51°13.692 2°55.808 13.5091 2.599918 19.347654 -2.458615
2012-01-18 07:42:38 51°13.698 2°55.798 13.5081 2.604775 19.387322 -2.458615
2012-01-18 07:42:43 51°13.702 2°55.789 13.4952 2.606738 19.403361 -2.458615
2012-01-18 07:42:47 51°13.706 2°55.783 13.4683 2.606428 19.401222 -2.458615
2012-01-18 07:42:53 51°13.712 2°55.773 13.5089 2.606428 19.401222 -2.458615
2012-01-18 07:42:58 51°13.718 2°55.764 13.493 2.601364 19.359861 -2.458615
2012-01-18 07:43:03 51°13.723 2°55.756 13.5061 2.602501 19.369145 -2.458615
2012-01-18 07:43:07 51°13.727 2°55.749 13.5045 2.600744 19.355189 -2.458615
2012-01-18 07:43:13 51°13.734 2°55.74 13.5105 2.602811 19.372461 -2.458615
2012-01-18 07:43:18 51°13.739 2°55.732 13.5125 2.602398 19.369085 -2.458615
2012-01-18 07:43:23 51°13.745 2°55.724 13.4907 2.602398 19.369085 -2.458615
2012-01-18 07:43:28 51°13.75 2°55.715 13.4978 2.595268 19.310855 -2.458615
2012-01-18 07:43:32 51°13.755 2°55.709 13.5103 2.601054 19.358112 -2.458615
2012-01-18 07:43:38 51°13.762 2°55.7 13.5335 2.598161 19.334482 -2.458615
2012-01-18 07:43:43 51°13.768 2°55.692 13.5521 2.601468 19.36188 -2.458615
2012-01-18 07:43:48 51°13.775 2°55.685 13.5298 2.603121 19.375778 -2.458615
2012-01-18 07:43:52 51°13.78 2°55.679 13.5532 2.603121 19.375778 -2.458615
2012-01-18 07:43:57 51°13.786 2°55.671 13.5574 2.605808 19.397727 -2.458615
2012-01-18 07:44:02 51°13.792 2°55.664 13.5565 2.600331 19.352988 -2.458615
2012-01-18 07:44:07 51°13.798 2°55.657 13.5409 2.598574 19.33864 -2.458615
2012-01-18 07:44:13 51°13.806 2°55.65 13.5419 2.594854 19.308261 -2.458615
2012-01-18 07:44:18 51°13.813 2°55.644 13.5175 2.592994 19.293074 -2.458615
2012-01-18 07:44:23 51°13.819 2°55.638 13.5135 2.592994 19.293074 -2.458615
2012-01-18 07:44:28 51°13.825 2°55.633 13.5119 2.588344 19.255501 -2.458615
2012-01-18 07:44:33 51°13.832 2°55.628 13.5227 2.597128 19.327217 -2.458615
2012-01-18 07:44:37 51°13.838 2°55.625 13.5584 2.591341 19.280356 -2.458615
2012-01-18 07:44:43 51°13.846 2°55.62 13.5306 2.591961 19.285418 -2.458615
2012-01-18 07:44:47 51°13.851 2°55.617 13.5203 2.590824 19.276137 -2.458615
2012-01-18 07:44:52 51°13.858 2°55.614 13.5313 2.590824 19.276137 -2.458615
2012-01-18 07:44:57 51°13.864 2°55.612 13.5564 2.592478 19.290027 -2.458615
2012-01-18 07:45:02 51°13.871 2°55.609 13.5652 2.599711 19.349491 -2.458615
2012-01-18 07:45:07 51°13.877 2°55.607 13.5527 2.592271 19.28873 -2.458615
2012-01-18 07:45:12 51°13.884 2°55.606 13.5206 2.586484 19.241487 -2.458615
2012-01-18 07:45:18 51°13.892 2°55.605 13.5432 2.593718 19.300933 -2.458615
2012-01-18 07:45:23 51°13.899 2°55.605 13.5263 2.593718 19.300933 -2.458615
2012-01-18 07:45:28 51°13.905 2°55.605 13.5972 2.585347 19.232598 -2.458615
2012-01-18 07:45:33 51°13.911 2°55.606 13.5832 2.591031 19.278995 -2.458615
2012-01-18 07:45:38 51°13.917 2°55.607 13.5643 2.581111 19.198019 -2.458615
2012-01-18 07:45:43 51°13.923 2°55.609 13.5272 2.580284 19.191661 -2.458615
2012-01-18 07:45:48 51°13.929 2°55.611 13.5823 2.580284 19.191661 -2.458615
2012-01-18 07:45:52 51°13.934 2°55.613 13.5403 2.580284 19.191661 -2.458615
2012-01-18 07:45:57 51°13.938 2°55.616 13.5654 2.571604 19.120842 -2.458615
2012-01-18 07:46:03 51°13.945 2°55.619 13.5648 2.581937 19.205543 -2.458615
2012-01-18 07:46:08 51°13.95 2°55.623 13.5619 2.576771 19.163381 -2.458615
2012-01-18 07:46:13 51°13.954 2°55.626 13.5919 2.582454 19.20976 -2.458615
2012-01-18 07:46:18 51°13.958 2°55.63 13.5354 2.565818 19.074418 -2.458615
2012-01-18 07:46:22 51°13.961 2°55.634 13.5736 2.565818 19.074418 -2.458615
2012-01-18 07:46:27 51°13.965 2°55.638 13.5839 2.579974 19.189909 -2.458615
2012-01-18 07:46:33 51°13.969 2°55.644 13.5781 2.584004 19.22319 -2.458615
2012-01-18 07:46:38 51°13.972 2°55.649 13.5685 2.576668 19.163313 -2.458615
2012-01-18 07:46:43 51°13.976 2°55.653 13.571 2.577701 19.171745 -2.458615
2012-01-18 07:46:47 51°13.977 2°55.656 13.5681 2.568814 19.099245 -2.458615
2012-01-18 07:46:52 51°13.979 2°55.66 13.5696 2.568814 19.099245 -2.458615
2012-01-18 07:46:58 51°13.982 2°55.664 13.5795 2.579871 19.189842 -2.458615
2012-01-18 07:47:03 51°13.983 2°55.666 13.5903 2.579561 19.187312 -2.458615
2012-01-18 07:47:07 51°13.984 2°55.668 13.5974 2.579768 19.188999 -2.458615
2012-01-18 07:47:12 51°13.985 2°55.668 13.5949 2.570984 19.11772 -2.458615
2012-01-18 07:47:17 51°13.985 2°55.668 13.6268 2.564061 19.060479 -2.458615
2012-01-18 07:47:23 51°13.986 2°55.667 13.6106 2.564061 19.060479 -2.458615
2012-01-18 07:47:28 51°13.987 2°55.664 13.5975 2.579354 19.185626 -2.458615
2012-01-18 07:47:32 51°13.987 2°55.661 13.5758 2.574084 19.142623 -2.458615
2012-01-18 07:47:37 51°13.988 2°55.656 13.5289 2.566851 19.083232 -2.458615
2012-01-18 07:47:42 51°13.989 2°55.65 13.4909 2.580904 19.198276 -2.458615
2012-01-18 07:47:47 51°13.991 2°55.644 13.4962 2.579871 19.190619 -2.458615
2012-01-18 07:47:52 51°13.993 2°55.636 13.3992 2.579871 19.190619 -2.458615
2012-01-18 07:47:57 51°13.996 2°55.627 13.3109 2.560238 19.03046 -2.458615
2012-01-18 07:48:02 51°13.999 2°55.618 13.1292 2.549285 18.941176 -2.458615
2012-01-18 07:48:07 51°14.002 2°55.608 13.0215 2.564061 19.061251 -2.458615
2012-01-18 07:48:12 51°14.006 2°55.597 12.9413 2.587104 19.249665 -2.458615
2012-01-18 07:48:17 51°14.011 2°55.587 12.9071 2.608805 19.427718 -2.458615
2012-01-18 07:48:22 51°14.016 2°55.576 13.0226 2.608805 19.427718 -2.458615
2012-01-18 07:48:27 51°14.022 2°55.565 13.0149 2.599091 19.349127 -2.458615
2012-01-18 07:48:32 51°14.029 2°55.555 13.0132 2.599195 19.349971 -2.458615
2012-01-18 07:48:38 51°14.038 2°55.542 13.0143 2.586691 19.24785 -2.458615
2012-01-18 07:48:42 51°14.044 2°55.534 12.9666 2.579251 19.187113 -2.458615
2012-01-18 07:48:47 51°14.052 2°55.523 12.0105 2.754535 20.623751 -2.458615
2012-01-18 07:48:53 51°14.061 2°55.509 9.6718 2.754535 20.623751 -2.458615
2012-01-18 07:48:57 51°14.069 2°55.5 9.1306 2.82266 21.192596 -2.458615
2012-01-18 07:49:02 51°14.078 2°55.489 8.1374 3.17243 24.105046 -2.458615
2012-01-18 07:49:08 51°14.089 2°55.477 7.9143 3.579292 27.548552 -2.458615
2012-01-18 07:49:13 51°14.099 2°55.466 7.5742 3.565323 28.00358 -2.458615
2012-01-18 07:49:17 51°14.108 2°55.458 7.4097 3.568132 28.828758 -2.458615
2012-01-18 07:49:23 51°14.12 2°55.445 7.2947 3.568132 28.828758 -2.458615
2012-01-18 07:49:28 51°14.131 2°55.435 7.2356 3.53346 29.416134 -2.458615
2012-01-18 07:49:33 51°14.142 2°55.424 7.064 3.440303 29.616696 -2.458615
2012-01-18 07:49:38 51°14.153 2°55.414 6.9906 3.367549 29.845799 -2.458615
2012-01-18 07:49:43 51°14.164 2°55.403 6.9017 3.274004 29.805484 -2.458615
2012-01-18 07:49:48 51°14.175 2°55.392 6.8199 3.282185 30.351099 -2.458615
2012-01-18 07:49:53 51°14.187 2°55.382 6.7136 3.282185 30.351099 -2.458615
2012-01-18 07:49:57 51°14.196 2°55.373 6.718 3.186272 29.858538 -2.458615
2012-01-18 07:50:03 51°14.21 2°55.36 6.659 3.133511 29.57909 -2.458615
2012-01-18 07:50:08 51°14.223 2°55.349 6.5773 3.099997 29.437087 -2.458615
2012-01-18 07:50:13 51°14.234 2°55.337 6.5789 3.068656 29.271662 -2.458615
2012-01-18 07:50:17 51°14.244 2°55.329 6.5538 3.037834 29.122841 -2.458615
2012-01-18 07:50:22 51°14.257 2°55.318 6.5516 3.037834 29.122841 -2.458615
2012-01-18 07:50:28 51°14.272 2°55.303 6.5409 3.020149 29.060346 -2.458615
2012-01-18 07:50:33 51°14.284 2°55.292 6.4818 3.004119 28.992547 -2.458615
2012-01-18 07:50:37 51°14.294 2°55.283 6.4536 2.995949 28.988109 -2.458615
2012-01-18 07:50:43 51°14.309 2°55.269 6.4264 2.986745 28.960873 -2.458615
2012-01-18 07:50:48 51°14.323 2°55.258 6.3808 2.977438 28.91599 -2.458615
2012-01-18 07:50:53 51°14.335 2°55.247 6.3545 2.977438 28.91599 -2.458615
2012-01-18 07:50:57 51°14.345 2°55.237 6.3142 2.969682 28.883725 -2.458615
2012-01-18 07:51:03 51°14.361 2°55.224 6.3182 2.960168 28.81524 -2.458615
2012-01-18 07:51:08 51°14.373 2°55.211 6.3395 2.949827 28.739315 -2.458615
2012-01-18 07:51:13 51°14.386 2°55.199 6.2852 2.943106 28.703778 -2.458615
2012-01-18 07:51:17 51°14.396 2°55.189 6.3003 2.935143 28.661068 -2.458615
2012-01-18 07:51:22 51°14.409 2°55.177 6.3289 2.935143 28.661068 -2.458615
2012-01-18 07:51:27 51°14.422 2°55.165 6.2711 2.92956 28.638443 -2.458615
2012-01-18 07:51:32 51°14.435 2°55.152 6.2614 2.925217 28.626827 -2.458615
2012-01-18 07:51:37 51°14.448 2°55.139 6.233 2.920667 28.605118 -2.458615
2012-01-18 07:51:41 51°14.458 2°55.129 6.2272 2.917255 28.588622 -2.458615
2012-01-18 07:51:46 51°14.471 2°55.117 6.1875 2.915084 28.587103 -2.458615
2012-01-18 07:51:51 51°14.484 2°55.104 6.181 2.915084 28.587103 -2.458615
2012-01-18 07:51:57 51°14.501 2°55.089 6.1635 2.914257 28.587571 -2.458615
2012-01-18 07:52:01 51°14.511 2°55.079 6.187 2.912706 28.581775 -2.458615
2012-01-18 07:52:06 51°14.525 2°55.067 6.1774 2.910534 28.570044 -2.458615
2012-01-18 07:52:10 51°14.536 2°55.057 6.1627 2.905571 28.541409 -2.458615
2012-01-18 07:52:15 51°14.55 2°55.044 6.1276 2.899677 28.495587 -2.458615
2012-01-18 07:52:21 51°14.567 2°55.03 6.1186 2.899677 28.495587 -2.458615
2012-01-18 07:52:25 51°14.578 2°55.02 6.0942 2.890681 28.422358 -2.458615
2012-01-18 07:52:30 51°14.592 2°55.007 6.1143 2.879825 28.325734 -2.458615
2012-01-18 07:52:35 51°14.605 2°54.994 6.1134 2.867831 28.213578 -2.458615
2012-01-18 07:52:40 51°14.619 2°54.981 6.095 2.856974 28.105934 -2.458615
2012-01-18 07:52:45 51°14.633 2°54.968 6.1098 2.842499 27.957499 -2.458615
2012-01-18 07:52:49 51°14.644 2°54.958 6.0844 2.842499 27.957499 -2.458615
2012-01-18 07:52:54 51°14.658 2°54.945 6.1004 2.830816 27.847803 -2.458615
2012-01-18 07:52:59 51°14.673 2°54.932 6.1227 2.815618 27.696878 -2.458615
2012-01-18 07:53:05 51°14.691 2°54.919 6.0883 2.810449 27.655386 -2.458615
2012-01-18 07:53:09 51°14.702 2°54.907 6.0965 2.810863 27.669055 -2.458615
2012-01-18 07:53:13 51°14.713 2°54.896 6.1284 2.815102 27.721167 -2.458615
2012-01-18 07:53:19 51°14.731 2°54.879 6.1358 2.815102 27.721167 -2.458615
2012-01-18 07:53:24 51°14.745 2°54.865 6.1478 2.826061 27.845499 -2.458615
2012-01-18 07:53:29 51°14.76 2°54.85 6.1451 2.838468 27.982574 -2.458615
2012-01-18 07:53:34 51°14.773 2°54.834 6.1679 2.850668 28.115172 -2.458615
2012-01-18 07:53:39 51°14.787 2°54.819 6.1808 2.86018 28.220174 -2.458615
2012-01-18 07:53:44 51°14.802 2°54.804 6.1819 2.870003 28.330967 -2.458615
2012-01-18 07:53:49 51°14.816 2°54.789 6.2039 2.870003 28.330967 -2.458615
2012-01-18 07:53:54 51°14.83 2°54.773 6.2089 2.878585 28.419672 -2.458615
2012-01-18 07:53:59 51°14.845 2°54.758 6.2291 2.892337 28.563112 -2.458615
2012-01-18 07:54:04 51°14.859 2°54.743 6.2576 2.904849 28.692277 -2.458615
2012-01-18 07:54:09 51°14.874 2°54.728 6.2528 2.923565 28.8875 -2.458615
2012-01-18 07:54:14 51°14.888 2°54.712 6.2421 2.942179 29.080863 -2.458615
2012-01-18 07:54:19 51°14.902 2°54.695 6.2573 2.942179 29.080863 -2.458615
2012-01-18 07:54:24 51°14.915 2°54.679 6.2651 2.956761 29.230271 -2.458615
2012-01-18 07:54:29 51°14.928 2°54.662 6.2633 2.975065 29.419528 -2.458615
2012-01-18 07:54:34 51°14.941 2°54.644 6.2716 2.986131 29.5265 -2.458615
2012-01-18 07:54:39 51°14.954 2°54.626 6.28 2.99213 29.580561 -2.458615
2012-01-18 07:54:45 51°14.971 2°54.606 6.3101 3.001024 29.66949 -2.458615
2012-01-18 07:54:49 51°14.982 2°54.594 6.2759 3.001024 29.66949 -2.458615
2012-01-18 07:54:54 51°14.997 2°54.579 6.2969 3.015607 29.823836 -2.458615
2012-01-18 07:54:59 51°15.011 2°54.564 6.2845 3.027191 29.945463 -2.458615
2012-01-18 07:55:04 51°15.026 2°54.55 6.2923 3.038982 30.066895 -2.458615
2012-01-18 07:55:09 51°15.041 2°54.535 6.2981 3.042706 30.103452 -2.458615
2012-01-18 07:55:14 51°15.056 2°54.522 6.2751 3.040016 30.065757 -2.458615
2012-01-18 07:55:19 51°15.072 2°54.509 6.3014 3.040016 30.065757 -2.458615
2012-01-18 07:55:25 51°15.09 2°54.494 6.2846 3.040947 30.069294 -2.458615
2012-01-18 07:55:29 51°15.102 2°54.483 6.2841 3.036189 30.012347 -2.458615
2012-01-18 07:55:34 51°15.118 2°54.469 6.2948 3.020054 29.833718 -2.458615
2012-01-18 07:55:39 51°15.132 2°54.454 6.276 3.002575 29.642234 -2.458615
2012-01-18 07:55:44 51°15.146 2°54.438 6.2939 3.016538 29.79206 -2.458615
2012-01-18 07:55:49 51°15.16 2°54.422 6.2641 3.016538 29.79206 -2.458615
2012-01-18 07:55:54 51°15.174 2°54.407 6.2707 3.080874 30.497553 -2.458615
2012-01-18 07:55:59 51°15.188 2°54.39 6.272 3.081495 30.503505 -2.458615
2012-01-18 07:56:04 51°15.203 2°54.375 6.2519 3.101253 30.722379 -2.458615
2012-01-18 07:56:09 51°15.217 2°54.359 6.2505 3.098873 30.698009 -2.458615
2012-01-18 07:56:14 51°15.232 2°54.345 6.2477 3.107149 30.790382 -2.458615
2012-01-18 07:56:19 51°15.248 2°54.331 6.2632 3.107149 30.790382 -2.458615
2012-01-18 07:56:24 51°15.263 2°54.318 6.2549 3.102804 30.746163 -2.458615
2012-01-18 07:56:29 51°15.279 2°54.306 6.2415 3.109218 30.82241 -2.458615
2012-01-18 07:56:34 51°15.295 2°54.294 6.2781 3.110873 30.843111 -2.458615
2012-01-18 07:56:39 51°15.311 2°54.282 6.257 3.108701 30.824393 -2.458615
2012-01-18 07:56:44 51°15.327 2°54.272 6.2498 3.104046 30.777596 -2.458615
2012-01-18 07:56:49 51°15.343 2°54.259 6.231 3.104046 30.777596 -2.458615
2012-01-18 07:56:54 51°15.358 2°54.247 6.23 3.103736 30.776741 -2.458615
2012-01-18 07:56:59 51°15.373 2°54.232 6.2284 3.111184 30.857583 -2.458615
2012-01-18 07:57:04 51°15.388 2°54.216 6.2245 3.102598 30.764263 -2.458615
2012-01-18 07:57:09 51°15.401 2°54.2 6.2263 3.095357 30.68233 -2.458615
2012-01-18 07:57:14 51°15.414 2°54.182 6.243 3.091736 30.642649 -2.458615
2012-01-18 07:57:19 51°15.426 2°54.164 6.2531 3.091736 30.642649 -2.458615
2012-01-18 07:57:24 51°15.44 2°54.146 6.2592 3.087185 30.600374 -2.458615
2012-01-18 07:57:29 51°15.453 2°54.128 6.2467 3.105184 30.808783 -2.458615
2012-01-18 07:57:34 51°15.466 2°54.111 6.2421 3.108184 30.846816 -2.458615
2012-01-18 07:57:39 51°15.479 2°54.094 6.2539 3.108598 30.860736 -2.458615
2012-01-18 07:57:45 51°15.495 2°54.073 6.2417 3.108908 30.86329 -2.458615
2012-01-18 07:57:49 51°15.506 2°54.059 6.2568 3.108908 30.86329 -2.458615
2012-01-18 07:57:54 51°15.518 2°54.041 6.2585 3.109115 30.863004 -2.458615
2012-01-18 07:57:59 51°15.531 2°54.023 6.2657 3.108805 30.854481 -2.458615
2012-01-18 07:58:04 51°15.544 2°54.004 6.2835 3.108908 30.852207 -2.458615
2012-01-18 07:58:09 51°15.556 2°53.986 6.2761 3.108908 30.852207 -2.458615
2012-01-18 07:58:14 51°15.568 2°53.967 6.2834 3.111908 30.885137 -2.458615
2012-01-18 07:58:19 51°15.58 2°53.948 6.2958 3.111908 30.885137 -2.458615
2012-01-18 07:58:25 51°15.594 2°53.925 6.2971 3.114081 30.908985 -2.458615
2012-01-18 07:58:29 51°15.603 2°53.909 6.2974 3.116046 30.928856 -2.458615
2012-01-18 07:58:34 51°15.615 2°53.889 6.3185 3.117494 30.939629 -2.458615
2012-01-18 07:58:39 51°15.626 2°53.869 6.3159 3.119253 30.952952 -2.458615
2012-01-18 07:58:44 51°15.638 2°53.85 6.3242 3.120908 30.965136 -2.458615
2012-01-18 07:58:49 51°15.65 2°53.831 6.3219 3.120908 30.965136 -2.458615
2012-01-18 07:58:54 51°15.662 2°53.812 6.3302 3.122874 30.983289 -2.458615
2012-01-18 07:58:59 51°15.675 2°53.793 6.3333 3.124322 30.991486 -2.458615
2012-01-18 07:59:05 51°15.689 2°53.771 6.3422 3.126287 31.009632 -2.458615
2012-01-18 07:59:09 51°15.699 2°53.757 6.3416 3.128149 31.021506 -2.458615
2012-01-18 07:59:14 51°15.712 2°53.74 6.3523 3.129805 31.032818 -2.458615
2012-01-18 07:59:19 51°15.726 2°53.722 6.3474 3.131874 31.050377 -2.458615
2012-01-18 07:59:24 51°15.738 2°53.704 6.3492 3.131874 31.050377 -2.458615
2012-01-18 07:59:29 51°15.751 2°53.686 6.3532 3.133736 31.06652 -2.458615
2012-01-18 07:59:34 51°15.763 2°53.667 6.3585 3.135701 31.083795 -2.458615
2012-01-18 07:59:39 51°15.776 2°53.649 6.3526 3.137563 31.099933 -2.458615
2012-01-18 07:59:45 51°15.791 2°53.627 6.3577 3.139322 31.114933 -2.458615
2012-01-18 07:59:49 51°15.8 2°53.612 6.3576 3.139322 31.114933 -2.458615
2012-01-18 07:59:54 51°15.812 2°53.592 6.3656 3.140874 31.127662 -2.458615
2012-01-18 07:59:59 51°15.824 2°53.572 6.3729 3.142632 31.144374 -2.458615
2012-01-18 08:00:04 51°15.836 2°53.555 6.3665 3.144184 31.159674 -2.458615
2012-01-18 08:00:09 51°15.849 2°53.537 6.3823 3.145633 31.172122 -2.458615
2012-01-18 08:00:14 51°15.863 2°53.52 6.3812 3.147598 31.191959 -2.458615
2012-01-18 08:00:19 51°15.876 2°53.504 6.3908 3.147598 31.191959 -2.458615
2012-01-18 08:00:25 51°15.893 2°53.486 6.388 3.148322 31.198181 -2.458615
2012-01-18 08:00:29 51°15.905 2°53.475 6.4022 3.149771 31.213204 -2.458615
2012-01-18 08:00:34 51°15.921 2°53.462 6.4007 3.151219 31.225647 -2.458615
2012-01-18 08:00:39 51°15.936 2°53.449 6.4094 3.152357 31.234686 -2.458615
2012-01-18 08:00:44 51°15.951 2°53.437 6.4069 3.153495 31.242003 -2.458615
2012-01-18 08:00:49 51°15.967 2°53.424 6.4041 3.153495 31.242003 -2.458615
2012-01-18 08:00:54 51°15.983 2°53.411 6.4059 3.154737 31.248732 -2.458615
2012-01-18 08:00:59 51°15.998 2°53.399 6.4153 3.155875 31.255185 -2.458615
2012-01-18 08:01:05 51°16.016 2°53.383 6.4289 3.157323 31.265898 -2.458615
2012-01-18 08:01:09 51°16.028 2°53.372 6.4194 3.158254 31.271801 -2.458615
2012-01-18 08:01:14 51°16.044 2°53.359 6.4126 3.159806 31.285364 -2.458615
2012-01-18 08:01:19 51°16.059 2°53.346 6.4183 3.159806 31.285364 -2.458615
2012-01-18 08:01:24 51°16.075 2°53.334 6.4141 3.161151 31.298381 -2.458615
2012-01-18 08:01:29 51°16.09 2°53.321 6.4207 3.163013 31.317926 -2.458615
2012-01-18 08:01:34 51°16.106 2°53.309 6.4231 3.164772 31.334615 -2.458615
2012-01-18 08:01:39 51°16.122 2°53.298 6.4141 3.16622 31.344454 -2.458615
2012-01-18 08:01:45 51°16.141 2°53.284 6.4191 3.167358 31.354337 -2.458615
2012-01-18 08:01:49 51°16.154 2°53.275 6.4203 3.167358 31.354337 -2.458615
2012-01-18 08:01:54 51°16.171 2°53.264 6.4217 3.169324 31.375876 -2.458615
2012-01-18 08:01:59 51°16.187 2°53.253 6.4262 3.171083 31.394287 -2.458615
2012-01-18 08:02:04 51°16.203 2°53.242 6.4156 3.172842 31.412698 -2.458615
2012-01-18 08:02:09 51°16.219 2°53.23 6.4318 3.174083 31.42544 -2.458615
2012-01-18 08:02:14 51°16.234 2°53.218 6.4223 3.175428 31.441045 -2.458615
2012-01-18 08:02:19 51°16.25 2°53.207 6.4159 3.175428 31.441045 -2.458615
2012-01-18 08:02:25 51°16.269 2°53.193 6.4115 3.176256 31.450981 -2.458615
2012-01-18 08:02:29 51°16.282 2°53.184 6.4254 3.177083 31.459189 -2.458615
2012-01-18 08:02:34 51°16.298 2°53.172 6.4118 3.17698 31.456325 -2.458615
2012-01-18 08:02:39 51°16.314 2°53.16 6.412 3.177601 31.463129 -2.458615
2012-01-18 08:02:44 51°16.33 2°53.149 6.4167 3.178325 31.471067 -2.458615
2012-01-18 08:02:49 51°16.345 2°53.136 6.4232 3.178325 31.471067 -2.458615
2012-01-18 08:02:54 51°16.362 2°53.125 6.4113 3.178842 31.476738 -2.458615
2012-01-18 08:02:59 51°16.378 2°53.113 6.4164 3.17936 31.485005 -2.458615
2012-01-18 08:03:05 51°16.396 2°53.098 6.4099 3.180084 31.49381 -2.458615
2012-01-18 08:03:09 51°16.408 2°53.088 6.4073 3.180601 31.500348 -2.458615
2012-01-18 08:03:14 51°16.424 2°53.076 6.4129 3.181222 31.508887 -2.458615
2012-01-18 08:03:19 51°16.44 2°53.064 6.4093 3.181222 31.508887 -2.458615
2012-01-18 08:03:24 51°16.456 2°53.051 6.4082 3.181636 31.513424 -2.458615
2012-01-18 08:03:29 51°16.471 2°53.038 6.4117 3.18205 31.516229 -2.458615
2012-01-18 08:03:34 51°16.486 2°53.025 6.4126 3.182567 31.523635 -2.458615
2012-01-18 08:03:39 51°16.502 2°53.011 6.4108 3.182981 31.530774 -2.458615
2012-01-18 08:03:45 51°16.519 2°52.994 6.4181 3.183602 31.539317 -2.458615
2012-01-18 08:03:49 51°16.531 2°52.982 6.4257 3.183602 31.539317 -2.458615
2012-01-18 08:03:54 51°16.546 2°52.968 6.4158 3.184016 31.543856 -2.458615
2012-01-18 08:03:59 51°16.561 2°52.953 6.4182 3.184429 31.549262 -2.458615
2012-01-18 08:04:04 51°16.575 2°52.939 6.4218 3.18505 31.556071 -2.458615
2012-01-18 08:04:09 51°16.59 2°52.924 6.424 3.185568 31.561745 -2.458615
2012-01-18 08:04:14 51°16.605 2°52.909 6.4256 3.186395 31.570825 -2.458615
2012-01-18 08:04:19 51°16.62 2°52.895 6.4268 3.186395 31.570825 -2.458615
2012-01-18 08:04:25 51°16.638 2°52.878 6.4339 3.187223 31.577299 -2.458615
2012-01-18 08:04:29 51°16.649 2°52.867 6.4295 3.187844 31.583239 -2.458615
2012-01-18 08:04:34 51°16.665 2°52.854 6.4368 3.188775 31.593453 -2.458615
2012-01-18 08:04:39 51°16.681 2°52.842 6.4314 3.189603 31.600795 -2.458615
2012-01-18 08:04:44 51°16.697 2°52.83 6.4359 3.190223 31.605866 -2.458615
2012-01-18 08:04:49 51°16.713 2°52.818 6.4399 3.190223 31.605866 -2.458615
2012-01-18 08:04:54 51°16.729 2°52.807 6.4372 3.191568 31.618881 -2.458615
2012-01-18 08:04:59 51°16.745 2°52.796 6.4425 3.1925 31.626487 -2.458615
2012-01-18 08:05:04 51°16.762 2°52.786 6.4463 3.193224 31.632692 -2.458615
2012-01-18 08:05:09 51°16.778 2°52.775 6.4508 3.194362 31.642565 -2.458615
2012-01-18 08:05:14 51°16.794 2°52.764 6.4533 3.194672 31.6451 -2.458615
2012-01-18 08:05:19 51°16.81 2°52.753 6.4594 3.194672 31.6451 -2.458615
2012-01-18 08:05:25 51°16.83 2°52.74 6.4573 3.196017 31.658982 -2.458615
2012-01-18 08:05:29 51°16.843 2°52.731 6.4626 3.196535 31.662916 -2.458615
2012-01-18 08:05:34 51°16.859 2°52.72 6.466 3.197259 31.668248 -2.458615
2012-01-18 08:05:39 51°16.875 2°52.709 6.4721 3.19819 31.675849 -2.458615
2012-01-18 08:05:45 51°16.894 2°52.694 6.4768 3.199328 31.685719 -2.458615
2012-01-18 08:05:49 51°16.907 2°52.685 6.4796 3.199328 31.685719 -2.458615
2012-01-18 08:05:54 51°16.922 2°52.673 6.4911 3.200259 31.692448 -2.458615
2012-01-18 08:06:00 51°16.942 2°52.66 6.4883 3.201087 31.698912 -2.458615
2012-01-18 08:06:05 51°16.958 2°52.648 6.4913 3.202432 31.710177 -2.458615
2012-01-18 08:06:09 51°16.971 2°52.639 6.4963 3.203156 31.715505 -2.458615
2012-01-18 08:06:13 51°16.984 2°52.63 6.5028 3.203881 31.719961 -2.458615
2012-01-18 08:06:19 51°17.003 2°52.615 6.5046 3.204501 31.722411 -2.458615
2012-01-18 08:06:25 51°17.022 2°52.601 6.5082 3.204501 31.722411 -2.458615
2012-01-18 08:06:29 51°17.035 2°52.591 6.511 3.205432 31.726521 -2.458615
2012-01-18 08:06:34 51°17.05 2°52.578 6.5114 3.205846 31.726702 -2.458615
2012-01-18 08:06:39 51°17.066 2°52.565 6.5186 3.206467 31.730022 -2.458615
2012-01-18 08:06:45 51°17.085 2°52.552 6.5239 3.20657 31.726802 -2.458615
2012-01-18 08:06:49 51°17.098 2°52.544 6.5262 3.20657 31.726802 -2.458615
2012-01-18 08:06:54 51°17.114 2°52.535 6.5328 3.20657 31.721579 -2.458615
2012-01-18 08:06:59 51°17.132 2°52.526 6.5271 3.206467 31.716964 -2.458615
2012-01-18 08:07:04 51°17.149 2°52.517 6.5274 3.206674 31.715751 -2.458615
2012-01-18 08:07:09 51°17.166 2°52.51 6.5257 3.206467 31.710005 -2.458615
2012-01-18 08:07:14 51°17.183 2°52.504 6.5248 3.206467 31.706526 -2.458615
2012-01-18 08:07:19 51°17.201 2°52.498 6.5209 3.206467 31.706526 -2.458615
2012-01-18 08:07:25 51°17.222 2°52.492 6.5219 3.20657 31.702443 -2.458615
2012-01-18 08:07:29 51°17.236 2°52.488 6.5175 3.206467 31.697834 -2.458615
2012-01-18 08:07:34 51°17.254 2°52.483 6.5141 3.20626 31.692093 -2.458615
2012-01-18 08:07:39 51°17.272 2°52.481 6.5127 3.206053 31.688959 -2.458615
2012-01-18 08:07:45 51°17.294 2°52.475 6.5158 3.205846 31.686694 -2.458615
2012-01-18 08:07:49 51°17.308 2°52.473 6.5146 3.205846 31.686694 -2.458615
2012-01-18 08:07:54 51°17.326 2°52.469 6.5151 3.205122 31.678767 -2.458615
2012-01-18 08:07:59 51°17.344 2°52.465 6.5114 3.203983 31.668047 -2.458615
2012-01-18 08:08:05 51°17.366 2°52.46 6.5098 3.203259 31.660988 -2.458615
2012-01-18 08:08:09 51°17.38 2°52.458 6.5058 3.2015 31.64434 -2.458615
2012-01-18 08:08:14 51°17.398 2°52.453 6.5035 3.199845 31.627089 -2.458615
2012-01-18 08:08:19 51°17.415 2°52.449 6.5023 3.199845 31.627089 -2.458615
2012-01-18 08:08:25 51°17.437 2°52.443 6.5062 3.198603 31.615235 -2.458615
2012-01-18 08:08:29 51°17.452 2°52.44 6.5098 3.197155 31.599382 -2.458615
2012-01-18 08:08:34 51°17.469 2°52.436 6.5013 3.19581 31.586395 -2.458615
2012-01-18 08:08:39 51°17.487 2°52.434 6.4974 3.193947 31.568612 -2.458615
2012-01-18 08:08:45 51°17.509 2°52.431 6.4993 3.19312 31.563017 -2.458615
2012-01-18 08:08:49 51°17.523 2°52.429 6.4984 3.19312 31.563017 -2.458615
2012-01-18 08:08:54 51°17.542 2°52.427 6.5025 3.191671 31.547165 -2.458615
2012-01-18 08:08:59 51°17.56 2°52.425 6.501 3.19105 31.541236 -2.458615
2012-01-18 08:09:05 51°17.582 2°52.424 6.4987 3.190636 31.536707 -2.458615
2012-01-18 08:09:09 51°17.597 2°52.424 6.5019 3.189809 31.529379 -2.458615
2012-01-18 08:09:14 51°17.614 2°52.423 6.4997 3.189188 31.524315 -2.458615
2012-01-18 08:09:19 51°17.632 2°52.423 6.4953 3.189188 31.524315 -2.458615
2012-01-18 08:09:24 51°17.651 2°52.422 6.4913 3.188774 31.52065 -2.458615
2012-01-18 08:09:29 51°17.668 2°52.42 6.4983 3.188153 31.514721 -2.458615
2012-01-18 08:09:34 51°17.687 2°52.418 6.4984 3.187636 31.50906 -2.458615
2012-01-18 08:09:39 51°17.706 2°52.416 6.4977 3.187429 31.508524 -2.458615
2012-01-18 08:09:45 51°17.727 2°52.415 6.4997 3.187222 31.505395 -2.458615
2012-01-18 08:09:49 51°17.742 2°52.415 6.4988 3.187222 31.505395 -2.458615
2012-01-18 08:09:54 51°17.761 2°52.415 6.4978 3.187326 31.508256 -2.458615
2012-01-18 08:09:59 51°17.779 2°52.414 6.5041 3.187326 31.509121 -2.458615
2012-01-18 08:10:05 51°17.801 2°52.415 6.4973 3.187326 31.51085 -2.458615
2012-01-18 08:10:09 51°17.816 2°52.414 6.5018 3.187119 31.506856 -2.458615
2012-01-18 08:10:14 51°17.835 2°52.413 6.5005 3.187222 31.507988 -2.458615
2012-01-18 08:10:20 51°17.856 2°52.413 6.5068 3.187222 31.507988 -2.458615
2012-01-18 08:10:25 51°17.875 2°52.412 6.501 3.187636 31.512518 -2.458615
2012-01-18 08:10:29 51°17.89 2°52.413 6.5009 3.187429 31.509389 -2.458615
2012-01-18 08:10:34 51°17.908 2°52.412 6.5028 3.187429 31.509389 -2.458615
2012-01-18 08:10:39 51°17.926 2°52.411 6.5037 3.187429 31.509389 -2.458615
2012-01-18 08:10:45 51°17.948 2°52.412 6.5036 3.187533 31.510521 -2.458615
2012-01-18 08:10:49 51°17.963 2°52.411 6.5028 3.187533 31.510521 -2.458615
2012-01-18 08:10:54 51°17.981 2°52.411 6.5046 3.187636 31.509924 -2.458615
2012-01-18 08:10:59 51°17.999 2°52.41 6.5027 3.187843 31.511325 -2.458615
2012-01-18 08:11:04 51°18.018 2°52.409 6.5005 3.187946 31.512457 -2.458615
2012-01-18 08:11:09 51°18.035 2°52.408 6.4979 3.18805 31.513589 -2.458615
2012-01-18 08:11:14 51°18.053 2°52.406 6.5021 3.188153 31.514721 -2.458615
2012-01-18 08:11:19 51°18.071 2°52.403 6.5032 3.188153 31.514721 -2.458615
2012-01-18 08:11:25 51°18.093 2°52.399 6.5016 3.187843 31.511325 -2.458615
2012-01-18 08:11:29 51°18.107 2°52.397 6.5002 3.18805 31.514454 -2.458615
2012-01-18 08:11:34 51°18.125 2°52.394 6.4999 3.187636 31.509924 -2.458615
2012-01-18 08:11:39 51°18.142 2°52.39 6.5082 3.187946 31.514186 -2.458615
2012-01-18 08:11:44 51°18.161 2°52.388 6.506 3.187636 31.511653 -2.458615
2012-01-18 08:11:49 51°18.178 2°52.385 6.5012 3.187636 31.511653 -2.458615
2012-01-18 08:11:54 51°18.196 2°52.382 6.5067 3.187119 31.506856 -2.458615
2012-01-18 08:11:59 51°18.214 2°52.377 6.5002 3.187119 31.505992 -2.458615
2012-01-18 08:12:04 51°18.231 2°52.374 6.5011 3.186705 31.502327 -2.458615
2012-01-18 08:12:09 51°18.249 2°52.371 6.5002 3.186498 31.499198 -2.458615
2012-01-18 08:12:14 51°18.267 2°52.366 6.5006 3.185877 31.49154 -2.458615
2012-01-18 08:12:19 51°18.285 2°52.363 6.5056 3.185877 31.49154 -2.458615
2012-01-18 08:12:25 51°18.306 2°52.358 6.502 3.185567 31.48728 -2.458615
2012-01-18 08:12:29 51°18.32 2°52.357 6.5007 3.184325 31.473694 -2.458615
2012-01-18 08:12:34 51°18.338 2°52.352 6.5055 3.183808 31.468034 -2.458615
2012-01-18 08:12:39 51°18.356 2°52.352 6.5081 3.183084 31.460973 -2.458615
2012-01-18 08:12:45 51°18.377 2°52.348 6.5092 3.18267 31.456444 -2.458615
2012-01-18 08:12:49 51°18.392 2°52.347 6.5173 3.18267 31.456444 -2.458615
2012-01-18 08:12:54 51°18.409 2°52.347 6.5175 3.182359 31.453911 -2.458615
2012-01-18 08:12:59 51°18.427 2°52.346 6.5228 3.182049 31.449652 -2.458615
2012-01-18 08:13:05 51°18.449 2°52.345 6.5203 3.182152 31.450784 -2.458615
2012-01-18 08:13:09 51°18.464 2°52.345 6.5187 3.181221 31.438872 -2.458615
2012-01-18 08:13:14 51°18.482 2°52.343 6.5235 3.181014 31.435746 -2.458615
2012-01-18 08:13:19 51°18.5 2°52.343 6.5219 3.181014 31.435746 -2.458615
2012-01-18 08:13:25 51°18.522 2°52.34 6.5247 3.180393 31.426369 -2.458615
2012-01-18 08:13:29 51°18.536 2°52.339 6.527 3.179773 31.416994 -2.458615
2012-01-18 08:13:34 51°18.555 2°52.337 6.5296 3.179048 31.406489 -2.458615
2012-01-18 08:13:39 51°18.572 2°52.337 6.5284 3.177703 31.390059 -2.458615
2012-01-18 08:13:45 51°18.594 2°52.334 6.5319 3.176565 31.376754 -2.458615
2012-01-18 08:13:49 51°18.609 2°52.334 6.5374 3.176565 31.376754 -2.458615
2012-01-18 08:13:54 51°18.627 2°52.333 6.5359 3.175013 31.358067 -2.458615
2012-01-18 08:13:59 51°18.645 2°52.333 6.5325 3.173254 31.33798 -2.458615
2012-01-18 08:14:05 51°18.667 2°52.332 6.5334 3.172116 31.323823 -2.458615
2012-01-18 08:14:09 51°18.682 2°52.333 6.5316 3.171185 31.311929 -2.458615
2012-01-18 08:14:14 51°18.701 2°52.332 6.5309 3.169944 31.296645 -2.458615
2012-01-18 08:14:19 51°18.719 2°52.332 6.5307 3.169944 31.296645 -2.458615
2012-01-18 08:14:25 51°18.741 2°52.332 6.5337 3.168909 31.282767 -2.458615
2012-01-18 08:14:29 51°18.755 2°52.332 6.5325 3.168185 31.273997 -2.458615
2012-01-18 08:14:34 51°18.773 2°52.333 6.5365 3.167254 31.262967 -2.458615
2012-01-18 08:14:39 51°18.791 2°52.332 6.5351 3.166323 31.251938 -2.458615
2012-01-18 08:14:44 51°18.81 2°52.331 6.5351 3.165495 31.242897 -2.458615
2012-01-18 08:14:49 51°18.828 2°52.33 6.5322 3.165495 31.242897 -2.458615
2012-01-18 08:14:53 51°18.842 2°52.328 6.5353 3.164978 31.238102 -2.458615
2012-01-18 08:14:59 51°18.863 2°52.325 6.5353 3.16446 31.232452 -2.458615
2012-01-18 08:15:04 51°18.882 2°52.322 6.5363 3.163736 31.224541 -2.458615
2012-01-18 08:15:09 51°18.899 2°52.32 6.5335 3.163219 31.218891 -2.458615
2012-01-18 08:15:14 51°18.918 2°52.316 6.542 3.162908 31.214645 -2.458615
2012-01-18 08:15:19 51°18.936 2°52.313 6.5396 3.162908 31.214645 -2.458615
2012-01-18 08:15:25 51°18.957 2°52.309 6.5368 3.162598 31.211255 -2.458615
2012-01-18 08:15:29 51°18.972 2°52.307 6.5379 3.162184 31.207591 -2.458615
2012-01-18 08:15:34 51°18.99 2°52.304 6.5364 3.162081 31.206461 -2.458615
2012-01-18 08:15:39 51°19.008 2°52.302 6.5415 3.161874 31.204201 -2.458615
2012-01-18 08:15:44 51°19.026 2°52.3 6.5384 3.161667 31.201941 -2.458615
2012-01-18 08:15:49 51°19.044 2°52.297 6.5391 3.161667 31.201941 -2.458615
2012-01-18 08:15:54 51°19.062 2°52.295 6.5416 3.16177 31.200506 -2.458615
2012-01-18 08:15:59 51°19.08 2°52.293 6.5443 3.161563 31.197391 -2.458615
2012-01-18 08:16:04 51°19.097 2°52.29 6.5428 3.161667 31.197666 -2.458615
2012-01-18 08:16:09 51°19.116 2°52.287 6.546 3.161667 31.197666 -2.458615
2012-01-18 08:16:14 51°19.134 2°52.284 6.5449 3.161563 31.197391 -2.458615
2012-01-18 08:16:19 51°19.152 2°52.282 6.5471 3.161563 31.197391 -2.458615
2012-01-18 08:16:24 51°19.17 2°52.281 6.5557 3.16146 31.195406 -2.458615
2012-01-18 08:16:29 51°19.189 2°52.28 6.5547 3.161667 31.196811 -2.458615
2012-01-18 08:16:34 51°19.206 2°52.28 6.5543 3.161874 31.197361 -2.458615
2012-01-18 08:16:39 51°19.224 2°52.278 6.5546 3.162081 31.198766 -2.458615
2012-01-18 08:16:44 51°19.242 2°52.278 6.562 3.162288 31.20017 -2.458615
2012-01-18 08:16:49 51°19.261 2°52.278 6.5584 3.162288 31.20017 -2.458615
2012-01-18 08:16:54 51°19.279 2°52.28 6.5629 3.162598 31.201849 -2.458615
2012-01-18 08:16:59 51°19.297 2°52.28 6.5643 3.162908 31.203529 -2.458615
2012-01-18 08:17:05 51°19.319 2°52.282 6.5688 3.163115 31.203224 -2.458615
2012-01-18 08:17:09 51°19.334 2°52.282 6.5642 3.163219 31.200934 -2.458615
2012-01-18 08:17:14 51°19.351 2°52.283 6.5667 3.163632 31.204597 -2.458615
2012-01-18 08:17:20 51°19.373 2°52.284 6.5692 3.163632 31.204597 -2.458615
2012-01-18 08:17:25 51°19.392 2°52.284 6.5754 3.16415 31.208535 -2.458615
2012-01-18 08:17:29 51°19.406 2°52.285 6.577 3.16446 31.210214 -2.458615
2012-01-18 08:17:33 51°19.421 2°52.286 6.5783 3.164977 31.214151 -2.458615
2012-01-18 08:17:39 51°19.442 2°52.287 6.5803 3.165598 31.219217 -2.458615
2012-01-18 08:17:45 51°19.465 2°52.289 6.5844 3.165805 31.22062 -2.458615
2012-01-18 08:17:49 51°19.479 2°52.289 6.5862 3.165805 31.22062 -2.458615
2012-01-18 08:17:54 51°19.498 2°52.29 6.5876 3.166219 31.223427 -2.458615
2012-01-18 08:17:59 51°19.516 2°52.291 6.5907 3.166633 31.226234 -2.458615
2012-01-18 08:18:05 51°19.539 2°52.292 6.5934 3.167046 31.227331 -2.458615
2012-01-18 08:18:09 51°19.553 2°52.293 6.5981 3.16746 31.230138 -2.458615
2012-01-18 08:18:14 51°19.571 2°52.295 6.5999 3.168184 31.235476 -2.458615
2012-01-18 08:18:19 51°19.59 2°52.296 6.6047 3.168184 31.235476 -2.458615
2012-01-18 08:18:24 51°19.609 2°52.297 6.6135 3.168495 31.236298 -2.458615
2012-01-18 08:18:29 51°19.627 2°52.298 6.6162 3.169219 31.241635 -2.458615
2012-01-18 08:18:33 51°19.642 2°52.3 6.618 3.169736 31.244714 -2.458615
2012-01-18 08:18:39 51°19.664 2°52.301 6.6228 3.17046 31.249195 -2.458615
2012-01-18 08:18:44 51°19.682 2°52.303 6.6275 3.170978 31.251419 -2.458615
2012-01-18 08:18:49 51°19.701 2°52.302 6.6354 3.170978 31.251419 -2.458615
2012-01-18 08:18:54 51°19.719 2°52.304 6.6442 3.172116 31.260413 -2.458615
2012-01-18 08:18:59 51°19.737 2°52.303 6.6495 3.173254 31.26855 -2.458615
2012-01-18 08:19:05 51°19.76 2°52.303 6.658 3.173978 31.272173 -2.458615
2012-01-18 08:19:09 51°19.774 2°52.302 6.6657 3.175116 31.279453 -2.458615
2012-01-18 08:19:14 51°19.792 2°52.302 6.6727 3.17615 31.287313 -2.458615
2012-01-18 08:19:19 51°19.811 2°52.3 6.6823 3.17615 31.287313 -2.458615
2012-01-18 08:19:24 51°19.829 2°52.299 6.6885 3.177289 31.29459 -2.458615
2012-01-18 08:19:29 51°19.847 2°52.298 6.6967 3.17884 31.306376 -2.458615
2012-01-18 08:19:34 51°19.865 2°52.298 6.7042 3.180496 31.318432 -2.458615
2012-01-18 08:19:39 51°19.884 2°52.296 6.7141 3.182151 31.328774 -2.458615
2012-01-18 08:19:44 51°19.902 2°52.295 6.7215 3.183806 31.339111 -2.458615
2012-01-18 08:19:49 51°19.92 2°52.293 6.7269 3.183806 31.339111 -2.458615
2012-01-18 08:19:54 51°19.938 2°52.293 6.7344 3.185669 31.3517 -2.458615
2012-01-18 08:19:59 51°19.956 2°52.292 6.743 3.187634 31.365412 -2.458615
2012-01-18 08:20:04 51°19.974 2°52.292 6.7513 3.189186 31.375467 -2.458615
2012-01-18 08:20:09 51°19.993 2°52.29 6.7586 3.192394 31.400122 -2.458615
2012-01-18 08:20:14 51°20.011 2°52.29 6.7649 3.194256 31.411835 -2.458615
2012-01-18 08:20:19 51°20.029 2°52.289 6.7706 3.194256 31.411835 -2.458615
2012-01-18 08:20:25 51°20.051 2°52.289 6.7781 3.196222 31.424669 -2.458615
2012-01-18 08:20:29 51°20.065 2°52.288 6.7834 3.198291 31.438625 -2.458615
2012-01-18 08:20:34 51°20.084 2°52.287 6.7878 3.200567 31.455685 -2.458615
2012-01-18 08:20:39 51°20.102 2°52.287 6.7929 3.202429 31.467379 -2.458615
2012-01-18 08:20:45 51°20.124 2°52.287 6.7983 3.204292 31.479926 -2.458615
2012-01-18 08:20:49 51°20.138 2°52.288 6.802 3.204292 31.479926 -2.458615
2012-01-18 08:20:54 51°20.156 2°52.288 6.8047 3.206257 31.495309 -2.458615
2012-01-18 08:20:59 51°20.175 2°52.289 6.8078 3.208327 31.50924 -2.458615
2012-01-18 08:21:04 51°20.193 2°52.29 6.8117 3.211017 31.531632 -2.458615
2012-01-18 08:21:09 51°20.211 2°52.29 6.8153 3.212776 31.543894 -2.458615
2012-01-18 08:21:14 51°20.23 2°52.291 6.8195 3.214535 31.557868 -2.458615
2012-01-18 08:21:19 51°20.248 2°52.291 6.8236 3.214535 31.557868 -2.458615
2012-01-18 08:21:25 51°20.27 2°52.292 6.828 3.216087 31.568731 -2.458615
2012-01-18 08:21:29 51°20.285 2°52.292 6.8335 3.218673 31.590839 -2.458615
2012-01-18 08:21:34 51°20.303 2°52.293 6.8409 3.219398 31.594417 -2.458615
2012-01-18 08:21:39 51°20.32 2°52.293 6.8478 3.220743 31.604741 -2.458615
2012-01-18 08:21:45 51°20.342 2°52.293 6.8535 3.222916 31.624058 -2.458615
2012-01-18 08:21:49 51°20.356 2°52.294 6.8592 3.222916 31.624058 -2.458615
2012-01-18 08:21:54 51°20.374 2°52.295 6.8654 3.223536 31.628226 -2.458615
2012-01-18 08:22:00 51°20.396 2°52.296 6.8723 3.224985 31.63881 -2.458615
2012-01-18 08:22:05 51°20.415 2°52.297 6.8783 3.226537 31.651375 -2.458615
2012-01-18 08:22:09 51°20.429 2°52.3 6.8851 3.227572 31.657458 -2.458615
2012-01-18 08:22:14 51°20.446 2°52.302 6.8915 3.229227 31.667703 -2.458615
2012-01-18 08:22:19 51°20.465 2°52.305 6.8973 3.229227 31.667703 -2.458615
2012-01-18 08:22:25 51°20.486 2°52.309 6.9032 3.230365 31.674906 -2.458615
2012-01-18 08:22:29 51°20.5 2°52.31 6.9071 3.232331 31.688516 -2.458615
2012-01-18 08:22:34 51°20.518 2°52.314 6.911 3.233883 31.698488 -2.458615
2012-01-18 08:22:39 51°20.536 2°52.317 6.9139 3.235228 31.70621 -2.458615
2012-01-18 08:22:44 51°20.554 2°52.32 6.92 3.236677 31.715053 -2.458615
2012-01-18 08:22:49 51°20.572 2°52.322 6.924 3.236677 31.715053 -2.458615
2012-01-18 08:22:53 51°20.586 2°52.324 6.9259 3.237815 31.720525 -2.458615
2012-01-18 08:22:59 51°20.609 2°52.326 6.9292 3.239367 31.730486 -2.458615
2012-01-18 08:23:04 51°20.627 2°52.328 6.9329 3.24185 31.75227 -2.458615
2012-01-18 08:23:09 51°20.645 2°52.33 6.9364 3.242885 31.758332 -2.458615
2012-01-18 08:23:14 51°20.663 2°52.332 6.9392 3.244127 31.767499 -2.458615
2012-01-18 08:23:19 51°20.681 2°52.335 6.9401 3.244127 31.767499 -2.458615
2012-01-18 08:23:25 51°20.703 2°52.338 6.9444 3.245472 31.776926 -2.458615
2012-01-18 08:23:29 51°20.717 2°52.34 6.9478 3.24661 31.784967 -2.458615
2012-01-18 08:23:34 51°20.735 2°52.343 6.9486 3.247748 31.793006 -2.458615
2012-01-18 08:23:39 51°20.753 2°52.345 6.9508 3.248886 31.801044 -2.458615
2012-01-18 08:23:44 51°20.772 2°52.349 6.9528 3.249507 31.803471 -2.458615
2012-01-18 08:23:49 51°20.79 2°52.351 6.9537 3.249507 31.803471 -2.458615
2012-01-18 08:23:55 51°20.812 2°52.353 6.9574 3.250542 31.811246 -2.458615
2012-01-18 08:23:59 51°20.827 2°52.356 6.956 3.251266 31.816515 -2.458615
2012-01-18 08:24:04 51°20.845 2°52.357 6.9582 3.251991 31.820062 -2.458615
2012-01-18 08:24:09 51°20.863 2°52.36 6.9606 3.252611 31.824208 -2.458615
2012-01-18 08:24:14 51°20.882 2°52.361 6.9613 3.253232 31.828354 -2.458615
2012-01-18 08:24:19 51°20.9 2°52.364 6.962 3.253232 31.828354 -2.458615
2012-01-18 08:24:24 51°20.918 2°52.366 6.9594 3.254474 31.840091 -2.458615
2012-01-18 08:24:29 51°20.936 2°52.368 6.9606 3.254784 31.841733 -2.458615
2012-01-18 08:24:34 51°20.955 2°52.37 6.9633 3.255405 31.845878 -2.458615
2012-01-18 08:24:39 51°20.973 2°52.372 6.9618 3.255923 31.850624 -2.458615
2012-01-18 08:24:45 51°20.995 2°52.374 6.9625 3.256336 31.852524 -2.458615
2012-01-18 08:24:49 51°21.009 2°52.377 6.9608 3.256336 31.852524 -2.458615
2012-01-18 08:24:54 51°21.028 2°52.378 6.9621 3.256543 31.853044 -2.458615
2012-01-18 08:24:59 51°21.046 2°52.379 6.9633 3.256854 31.855547 -2.458615
2012-01-18 08:25:04 51°21.064 2°52.381 6.9593 3.257164 31.858911 -2.458615
2012-01-18 08:25:09 51°21.083 2°52.382 6.9613 3.257682 31.863656 -2.458615
2012-01-18 08:25:14 51°21.101 2°52.383 6.9614 3.257578 31.861673 -2.458615
2012-01-18 08:25:19 51°21.119 2°52.384 6.9627 3.257578 31.861673 -2.458615
2012-01-18 08:25:24 51°21.137 2°52.386 6.9614 3.257578 31.861673 -2.458615
2012-01-18 08:25:29 51°21.156 2°52.387 6.9613 3.257889 31.865037 -2.458615
2012-01-18 08:25:33 51°21.17 2°52.388 6.9635 3.258613 31.872887 -2.458615
2012-01-18 08:25:39 51°21.192 2°52.391 6.9638 3.258199 31.868401 -2.458615
2012-01-18 08:25:44 51°21.21 2°52.392 6.9633 3.258199 31.868401 -2.458615
2012-01-18 08:25:49 51°21.229 2°52.395 6.9656 3.258199 31.868401 -2.458615
2012-01-18 08:25:54 51°21.247 2°52.398 6.966 3.258406 31.870644 -2.458615
2012-01-18 08:25:59 51°21.265 2°52.4 6.9684 3.258613 31.872025 -2.458615
2012-01-18 08:26:04 51°21.284 2°52.402 6.9669 3.258923 31.875389 -2.458615
2012-01-18 08:26:09 51°21.302 2°52.405 6.9666 3.258716 31.872284 -2.458615
2012-01-18 08:26:14 51°21.321 2°52.406 6.9643 3.25913 31.875908 -2.458615
2012-01-18 08:26:19 51°21.339 2°52.41 6.9652 3.25913 31.875908 -2.458615
2012-01-18 08:26:24 51°21.357 2°52.411 6.9676 3.258923 31.872803 -2.458615
2012-01-18 08:26:29 51°21.376 2°52.414 6.9696 3.259234 31.875305 -2.458615
2012-01-18 08:26:34 51°21.395 2°52.417 6.972 3.259337 31.875564 -2.458615
2012-01-18 08:26:40 51°21.417 2°52.42 6.9741 3.259027 31.871338 -2.458615
2012-01-18 08:26:44 51°21.432 2°52.423 6.9732 3.25913 31.872459 -2.458615
2012-01-18 08:26:49 51°21.45 2°52.426 6.9712 3.25913 31.872459 -2.458615
2012-01-18 08:26:54 51°21.469 2°52.429 6.9738 3.259441 31.876685 -2.458615
2012-01-18 08:26:59 51°21.488 2°52.432 6.9759 3.259648 31.878928 -2.458615
2012-01-18 08:27:04 51°21.506 2°52.437 6.9753 3.259958 31.88143 -2.458615
2012-01-18 08:27:09 51°21.525 2°52.44 6.9759 3.260579 31.885571 -2.458615
2012-01-18 08:27:14 51°21.543 2°52.445 6.9785 3.260475 31.883587 -2.458615
2012-01-18 08:27:19 51°21.562 2°52.448 6.98 3.260475 31.883587 -2.458615
2012-01-18 08:27:25 51°21.584 2°52.454 6.9831 3.260682 31.884967 -2.458615
2012-01-18 08:27:29 51°21.599 2°52.456 6.9854 3.260993 31.887469 -2.458615
2012-01-18 08:27:34 51°21.618 2°52.459 6.9847 3.261717 31.894455 -2.458615
2012-01-18 08:27:39 51°21.637 2°52.461 6.9842 3.261924 31.895835 -2.458615
2012-01-18 08:27:45 51°21.659 2°52.464 6.9888 3.262131 31.897215 -2.458615
2012-01-18 08:27:49 51°21.674 2°52.465 6.9893 3.262131 31.897215 -2.458615
2012-01-18 08:27:54 51°21.692 2°52.468 6.9885 3.262545 31.899974 -2.458615
2012-01-18 08:27:59 51°21.711 2°52.47 6.9904 3.263269 31.90696 -2.458615
2012-01-18 08:28:04 51°21.729 2°52.473 6.9903 3.26389 31.911961 -2.458615
2012-01-18 08:28:09 51°21.748 2°52.474 6.9923 3.263787 31.909115 -2.458615
2012-01-18 08:28:15 51°21.77 2°52.476 6.9953 3.264201 31.912736 -2.458615
2012-01-18 08:28:19 51°21.785 2°52.477 6.9954 3.264201 31.912736 -2.458615
2012-01-18 08:28:24 51°21.804 2°52.479 6.996 3.264201 31.911011 -2.458615
2012-01-18 08:28:29 51°21.822 2°52.48 6.9979 3.264511 31.912649 -2.458615
2012-01-18 08:28:34 51°21.841 2°52.482 7.001 3.264925 31.91627 -2.458615
2012-01-18 08:28:39 51°21.86 2°52.482 7.0033 3.265132 31.917649 -2.458615
2012-01-18 08:28:44 51°21.878 2°52.483 7.007 3.26596 31.925754 -2.458615
2012-01-18 08:28:49 51°21.897 2°52.485 7.0068 3.26596 31.925754 -2.458615
2012-01-18 08:28:54 51°21.915 2°52.487 7.0092 3.266581 31.930753 -2.458615
2012-01-18 08:28:59 51°21.934 2°52.487 7.0122 3.266891 31.93239 -2.458615
2012-01-18 08:29:05 51°21.956 2°52.491 7.0182 3.267098 31.932906 -2.458615
2012-01-18 08:29:09 51°21.971 2°52.492 7.0155 3.267512 31.935663 -2.458615
2012-01-18 08:29:14 51°21.99 2°52.495 7.0165 3.267926 31.93842 -2.458615
2012-01-18 08:29:19 51°22.008 2°52.498 7.0201 3.267926 31.93842 -2.458615
2012-01-18 08:29:25 51°22.031 2°52.502 7.0154 3.268857 31.945917 -2.458615
2012-01-18 08:29:29 51°22.046 2°52.504 7.0184 3.269788 31.953414 -2.458615
2012-01-18 08:29:34 51°22.064 2°52.506 7.0161 3.269478 31.947463 -2.458615
2012-01-18 08:29:39 51°22.083 2°52.509 7.0208 3.269892 31.949356 -2.458615
2012-01-18 08:29:44 51°22.102 2°52.51 7.0197 3.270513 31.954353 -2.458615
2012-01-18 08:29:49 51°22.121 2°52.512 7.0168 3.270513 31.954353 -2.458615
2012-01-18 08:29:53 51°22.135 2°52.514 7.0202 3.27103 31.958229 -2.458615
2012-01-18 08:29:59 51°22.158 2°52.515 7.0218 3.27134 31.960727 -2.458615
2012-01-18 08:30:04 51°22.177 2°52.517 7.0192 3.271547 31.962968 -2.458615
2012-01-18 08:30:09 51°22.196 2°52.518 7.0203 3.272272 31.969947 -2.458615
2012-01-18 08:30:14 51°22.215 2°52.52 7.0197 3.272375 31.970204 -2.458615
2012-01-18 08:30:19 51°22.233 2°52.523 7.0246 3.272375 31.970204 -2.458615
2012-01-18 08:30:25 51°22.256 2°52.527 7.0207 3.272272 31.969084 -2.458615
2012-01-18 08:30:29 51°22.271 2°52.528 7.0216 3.272479 31.971325 -2.458615
2012-01-18 08:30:34 51°22.289 2°52.532 7.0208 3.272582 31.971582 -2.458615
2012-01-18 08:30:39 51°22.308 2°52.535 7.0212 3.272893 31.974079 -2.458615
2012-01-18 08:30:44 51°22.326 2°52.539 7.0244 3.272996 31.974336 -2.458615
2012-01-18 08:30:49 51°22.346 2°52.543 7.0232 3.272996 31.974336 -2.458615
2012-01-18 08:30:54 51°22.364 2°52.547 7.0241 3.272996 31.973473 -2.458615
2012-01-18 08:30:59 51°22.383 2°52.551 7.0253 3.273203 31.973987 -2.458615
2012-01-18 08:31:04 51°22.401 2°52.555 7.0252 3.2731 31.97373 -2.458615
2012-01-18 08:31:09 51°22.42 2°52.559 7.0268 3.273617 31.979332 -2.458615
2012-01-18 08:31:14 51°22.439 2°52.562 7.03 3.273824 31.980709 -2.458615
2012-01-18 08:31:19 51°22.458 2°52.565 7.0301 3.274238 31.98519 -2.458615
2012-01-18 08:31:24 51°22.476 2°52.568 7.029 3.274238 31.98519 -2.458615
2012-01-18 08:31:29 51°22.495 2°52.57 7.0303 3.274445 31.985703 -2.458615
2012-01-18 08:31:34 51°22.514 2°52.574 7.0301 3.274238 31.983463 -2.458615
2012-01-18 08:31:39 51°22.533 2°52.576 7.0314 3.27372 31.977862 -2.458615
2012-01-18 08:31:45 51°22.555 2°52.579 7.0326 3.273927 31.979239 -2.458615
2012-01-18 08:31:49 51°22.57 2°52.581 7.0349 3.273927 31.979239 -2.458615
2012-01-18 08:31:54 51°22.589 2°52.583 7.0336 3.274341 31.982856 -2.458615
2012-01-18 08:31:59 51°22.607 2°52.584 7.0338 3.274134 31.979753 -2.458615
2012-01-18 08:32:05 51°22.629 2°52.587 7.0347 3.274755 31.98561 -2.458615
2012-01-18 08:32:09 51°22.644 2°52.59 7.0362 3.275066 31.988107 -2.458615
2012-01-18 08:32:14 51°22.663 2°52.593 7.0381 3.275273 31.990347 -2.458615
2012-01-18 08:32:19 51°22.682 2°52.598 7.04 3.275273 31.990347 -2.458615
2012-01-18 08:32:24 51°22.701 2°52.602 7.0408 3.27548 31.99086 -2.458615
2012-01-18 08:32:29 51°22.719 2°52.608 7.0401 3.275687 31.992237 -2.458615
2012-01-18 08:32:34 51°22.738 2°52.614 7.0416 3.275894 31.993614 -2.458615
2012-01-18 08:32:39 51°22.757 2°52.619 7.0419 3.276514 31.998607 -2.458615
2012-01-18 08:32:45 51°22.779 2°52.626 7.0418 3.276721 31.999983 -2.458615
2012-01-18 08:32:49 51°22.794 2°52.629 7.0435 3.276721 31.999983 -2.458615
2012-01-18 08:32:54 51°22.812 2°52.635 7.0398 3.276928 32.000496 -2.458615
2012-01-18 08:32:59 51°22.831 2°52.639 7.0399 3.277446 32.005232 -2.458615
2012-01-18 08:33:05 51°22.853 2°52.645 7.0397 3.278067 32.011088 -2.458615
2012-01-18 08:33:09 51°22.869 2°52.648 7.0441 3.278274 32.012464 -2.458615
2012-01-18 08:33:14 51°22.887 2°52.652 7.0449 3.278481 32.01384 -2.458615
2012-01-18 08:33:20 51°22.91 2°52.657 7.0439 3.278481 32.01384 -2.458615
2012-01-18 08:33:25 51°22.928 2°52.66 7.0447 3.278791 32.0172 -2.458615
2012-01-18 08:33:29 51°22.943 2°52.662 7.0456 3.279412 32.023919 -2.458615
2012-01-18 08:33:34 51°22.962 2°52.665 7.0501 3.279515 32.025903 -2.458615
2012-01-18 08:33:39 51°22.98 2°52.668 7.0524 3.279412 32.024783 -2.458615
2012-01-18 08:33:45 51°23.003 2°52.672 7.0497 3.279826 32.028399 -2.458615
2012-01-18 08:33:49 51°23.018 2°52.674 7.0544 3.279826 32.028399 -2.458615
2012-01-18 08:33:54 51°23.037 2°52.678 7.0547 3.280136 32.030895 -2.458615
2012-01-18 08:33:59 51°23.055 2°52.682 7.058 3.280447 32.03339 -2.458615
2012-01-18 08:34:05 51°23.078 2°52.687 7.0565 3.280861 32.037006 -2.458615
2012-01-18 08:34:09 51°23.093 2°52.69 7.0572 3.281171 32.038637 -2.458615
2012-01-18 08:34:14 51°23.112 2°52.693 7.0619 3.281792 32.042763 -2.458615
2012-01-18 08:34:19 51°23.13 2°52.698 7.0658 3.281792 32.042763 -2.458615
2012-01-18 08:34:25 51°23.153 2°52.703 7.0642 3.281792 32.041898 -2.458615
2012-01-18 08:34:29 51°23.168 2°52.706 7.0666 3.282723 32.050248 -2.458615
2012-01-18 08:34:34 51°23.186 2°52.712 7.0685 3.28293 32.049894 -2.458615
2012-01-18 08:34:39 51°23.205 2°52.715 7.0655 3.283862 32.059107 -2.458615
2012-01-18 08:34:45 51°23.227 2°52.722 7.0674 3.284172 32.060736 -2.458615
2012-01-18 08:34:49 51°23.242 2°52.724 7.0689 3.284172 32.060736 -2.458615
2012-01-18 08:34:54 51°23.261 2°52.73 7.0707 3.284896 32.066845 -2.458615
2012-01-18 08:34:59 51°23.28 2°52.735 7.0737 3.285621 32.072088 -2.458615
2012-01-18 08:35:05 51°23.302 2°52.742 7.076 3.286035 32.074837 -2.458615
2012-01-18 08:35:09 51°23.317 2°52.746 7.0775 3.286656 32.080689 -2.458615
2012-01-18 08:35:14 51°23.336 2°52.752 7.0818 3.286862 32.082063 -2.458615
2012-01-18 08:35:19 51°23.354 2°52.758 7.0808 3.286862 32.082063 -2.458615
2012-01-18 08:35:25 51°23.376 2°52.766 7.0822 3.287587 32.089035 -2.458615
2012-01-18 08:35:29 51°23.391 2°52.773 7.0834 3.288208 32.094022 -2.458615
2012-01-18 08:35:34 51°23.409 2°52.779 7.084 3.288829 32.099008 -2.458615
2012-01-18 08:35:39 51°23.427 2°52.787 7.0858 3.289553 32.105114 -2.458615
2012-01-18 08:35:45 51°23.45 2°52.795 7.0896 3.289967 32.106996 -2.458615
2012-01-18 08:35:49 51°23.464 2°52.802 7.0904 3.289967 32.106996 -2.458615
2012-01-18 08:35:53 51°23.478 2°52.808 7.0908 3.290691 32.112235 -2.458615
2012-01-18 08:35:59 51°23.5 2°52.817 7.0915 3.291416 32.118339 -2.458615
2012-01-18 08:36:05 51°23.523 2°52.827 7.0917 3.291933 32.12307 -2.458615
2012-01-18 08:36:09 51°23.538 2°52.832 7.0939 3.292658 32.129174 -2.458615
2012-01-18 08:36:14 51°23.556 2°52.841 7.0966 3.293175 32.133039 -2.458615
2012-01-18 08:36:19 51°23.574 2°52.847 7.0981 3.293175 32.133039 -2.458615
2012-01-18 08:36:24 51°23.592 2°52.856 7.0968 3.293899 32.139142 -2.458615
2012-01-18 08:36:29 51°23.611 2°52.862 7.0964 3.294417 32.143006 -2.458615
2012-01-18 08:36:34 51°23.63 2°52.869 7.0977 3.295245 32.151094 -2.458615
2012-01-18 08:36:39 51°23.648 2°52.877 7.0966 3.295969 32.157196 -2.458615
2012-01-18 08:36:44 51°23.667 2°52.884 7.098 3.296279 32.158821 -2.458615
2012-01-18 08:36:49 51°23.685 2°52.892 7.0936 3.296279 32.158821 -2.458615
2012-01-18 08:36:53 51°23.7 2°52.897 7.0953 3.297004 32.165789 -2.458615
2012-01-18 08:36:59 51°23.722 2°52.905 7.0962 3.296176 32.155103 -2.458615
2012-01-18 08:37:04 51°23.74 2°52.914 7.0959 3.2969 32.162937 -2.458615
2012-01-18 08:37:09 51°23.758 2°52.92 7.0947 3.297521 32.168785 -2.458615
2012-01-18 08:37:14 51°23.777 2°52.926 7.0911 3.298039 32.173514 -2.458615
2012-01-18 08:37:19 51°23.795 2°52.932 7.0922 3.298039 32.173514 -2.458615
2012-01-18 08:37:24 51°23.814 2°52.937 7.0908 3.298349 32.176872 -2.458615
2012-01-18 08:37:29 51°23.832 2°52.942 7.094 3.298763 32.182215 -2.458615
2012-01-18 08:37:34 51°23.851 2°52.948 7.0916 3.298867 32.183334 -2.458615
2012-01-18 08:37:39 51°23.869 2°52.954 7.0861 3.298763 32.183082 -2.458615
2012-01-18 08:37:45 51°23.891 2°52.959 7.0843 3.298763 32.183949 -2.458615
2012-01-18 08:37:49 51°23.906 2°52.963 7.0902 3.298763 32.183949 -2.458615
2012-01-18 08:37:54 51°23.924 2°52.968 7.0861 3.299074 32.187307 -2.458615
2012-01-18 08:37:59 51°23.943 2°52.975 7.0885 3.299074 32.189908 -2.458615
2012-01-18 08:38:05 51°23.965 2°52.98 7.0874 3.299177 32.19016 -2.458615
2012-01-18 08:38:09 51°23.98 2°52.985 7.0826 3.299281 32.192147 -2.458615
2012-01-18 08:38:14 51°23.998 2°52.988 7.0792 3.299281 32.193014 -2.458615
2012-01-18 08:38:19 51°24.017 2°52.995 7.0768 3.299281 32.193014 -2.458615
2012-01-18 08:38:25 51°24.039 2°53 7.0764 3.299177 32.192762 -2.458615
2012-01-18 08:38:29 51°24.054 2°53.004 7.0731 3.299591 32.198107 -2.458615
2012-01-18 08:38:34 51°24.072 2°53.009 7.0737 3.299384 32.195868 -2.458615
2012-01-18 08:38:39 51°24.091 2°53.013 7.0707 3.299281 32.195616 -2.458615
2012-01-18 08:38:45 51°24.113 2°53.018 7.0688 3.298763 32.191754 -2.458615
2012-01-18 08:38:49 51°24.128 2°53.022 7.0719 3.298763 32.191754 -2.458615
2012-01-18 08:38:54 51°24.147 2°53.026 7.0688 3.29866 32.192369 -2.458615
2012-01-18 08:38:59 51°24.165 2°53.031 7.0725 3.29866 32.194104 -2.458615
2012-01-18 08:39:04 51°24.184 2°53.035 7.0698 3.29866 32.196707 -2.458615
2012-01-18 08:39:09 51°24.203 2°53.04 7.0711 3.298039 32.191724 -2.458615
2012-01-18 08:39:14 51°24.222 2°53.043 7.0713 3.297728 32.1901 -2.458615
2012-01-18 08:39:19 51°24.24 2°53.049 7.07 3.297728 32.1901 -2.458615
2012-01-18 08:39:24 51°24.258 2°53.052 7.0687 3.297832 32.192955 -2.458615
2012-01-18 08:39:29 51°24.277 2°53.058 7.0714 3.297728 32.192703 -2.458615
2012-01-18 08:39:34 51°24.295 2°53.064 7.076 3.297418 32.189344 -2.458615
2012-01-18 08:39:39 51°24.313 2°53.069 7.0731 3.297315 32.189959 -2.458615
2012-01-18 08:39:44 51°24.331 2°53.076 7.071 3.297418 32.191079 -2.458615
2012-01-18 08:39:49 51°24.349 2°53.082 7.0755 3.297418 32.191079 -2.458615
2012-01-18 08:39:54 51°24.367 2°53.09 7.0731 3.297004 32.185732 -2.458615
2012-01-18 08:39:59 51°24.385 2°53.097 7.0728 3.297418 32.191079 -2.458615
2012-01-18 08:40:04 51°24.404 2°53.103 7.0789 3.297108 32.186852 -2.458615
2012-01-18 08:40:09 51°24.422 2°53.109 7.0762 3.297418 32.189344 -2.458615
2012-01-18 08:40:14 51°24.441 2°53.117 7.0746 3.297004 32.183997 -2.458615
2012-01-18 08:40:19 51°24.459 2°53.123 7.0788 3.297004 32.183997 -2.458615
2012-01-18 08:40:25 51°24.481 2°53.131 7.0829 3.297314 32.186488 -2.458615
2012-01-18 08:40:29 51°24.495 2°53.137 7.0796 3.297521 32.188728 -2.458615
2012-01-18 08:40:34 51°24.513 2°53.144 7.079 3.297314 32.185621 -2.458615
2012-01-18 08:40:39 51°24.532 2°53.149 7.0764 3.297521 32.18786 -2.458615
2012-01-18 08:40:44 51°24.55 2°53.155 7.0779 3.298142 32.193712 -2.458615
2012-01-18 08:40:49 51°24.568 2°53.159 7.0768 3.298142 32.193712 -2.458615
2012-01-18 08:40:54 51°24.587 2°53.165 7.0753 3.298142 32.192844 -2.458615
2012-01-18 08:40:59 51°24.605 2°53.168 7.076 3.298453 32.194468 -2.458615
2012-01-18 08:41:04 51°24.623 2°53.172 7.0795 3.298453 32.194468 -2.458615
2012-01-18 08:41:09 51°24.641 2°53.178 7.0787 3.298867 32.199815 -2.458615
2012-01-18 08:41:14 51°24.659 2°53.181 7.0813 3.299074 32.201186 -2.458615
2012-01-18 08:41:19 51°24.677 2°53.188 7.0837 3.299074 32.201186 -2.458615
2012-01-18 08:41:24 51°24.696 2°53.193 7.0807 3.29897 32.200934 -2.458615
2012-01-18 08:41:29 51°24.714 2°53.199 7.0794 3.29897 32.201802 -2.458615
2012-01-18 08:41:34 51°24.732 2°53.205 7.0804 3.29897 32.20267 -2.458615
2012-01-18 08:41:39 51°24.75 2°53.211 7.0792 3.29897 32.201802 -2.458615
2012-01-18 08:41:44 51°24.769 2°53.216 7.0781 3.29897 32.200934 -2.458615
2012-01-18 08:41:49 51°24.787 2°53.221 7.0787 3.29897 32.200934 -2.458615
2012-01-18 08:41:55 51°24.81 2°53.227 7.0812 3.299591 32.205917 -2.458615
2012-01-18 08:41:59 51°24.824 2°53.23 7.0823 3.299591 32.205049 -2.458615
2012-01-18 08:42:04 51°24.843 2°53.235 7.0848 3.299488 32.203929 -2.458615
2012-01-18 08:42:09 51°24.861 2°53.239 7.0852 3.299695 32.207037 -2.458615
2012-01-18 08:42:14 51°24.88 2°53.244 7.0857 3.299798 32.208157 -2.458615
2012-01-18 08:42:19 51°24.898 2°53.248 7.0875 3.299798 32.208157 -2.458615
2012-01-18 08:42:24 51°24.917 2°53.253 7.0897 3.300316 32.214624 -2.458615
2012-01-18 08:42:29 51°24.935 2°53.257 7.0906 3.300419 32.215744 -2.458615
2012-01-18 08:42:34 51°24.953 2°53.261 7.0927 3.300936 32.220474 -2.458615
2012-01-18 08:42:39 51°24.972 2°53.267 7.0953 3.30073 32.217366 -2.458615
2012-01-18 08:42:45 51°24.994 2°53.271 7.0981 3.301247 32.222097 -2.458615
2012-01-18 08:42:49 51°25.008 2°53.276 7.0991 3.301247 32.222097 -2.458615
2012-01-18 08:42:54 51°25.027 2°53.28 7.1016 3.30135 32.222349 -2.458615
2012-01-18 08:42:59 51°25.045 2°53.286 7.1079 3.301764 32.225091 -2.458615
2012-01-18 08:43:05 51°25.067 2°53.293 7.1158 3.301971 32.225593 -2.458615
2012-01-18 08:43:09 51°25.081 2°53.298 7.1116 3.302075 32.224977 -2.458615
2012-01-18 08:43:14 51°25.1 2°53.306 7.1134 3.30311 32.233568 -2.458615
2012-01-18 08:43:19 51°25.118 2°53.311 7.1149 3.30311 32.233568 -2.458615
2012-01-18 08:43:24 51°25.136 2°53.32 7.1222 3.303006 32.230711 -2.458615
2012-01-18 08:43:29 51°25.154 2°53.324 7.121 3.301557 32.212435 -2.458615
2012-01-18 08:43:34 51°25.172 2°53.333 7.1188 3.301764 32.211203 -2.458615
2012-01-18 08:43:39 51°25.19 2°53.338 7.1234 3.302696 32.216938 -2.458615
2012-01-18 08:43:44 51°25.209 2°53.345 7.1208 3.303006 32.217693 -2.458615
2012-01-18 08:43:49 51°25.227 2°53.351 7.1233 3.303213 32.217328 -2.458615
2012-01-18 08:43:54 51°25.245 2°53.357 7.1222 3.303213 32.217328 -2.458615
2012-01-18 08:43:59 51°25.264 2°53.362 7.1262 3.303834 32.222307 -2.458615
2012-01-18 08:44:04 51°25.282 2°53.369 7.1255 3.304765 32.229774 -2.458615
2012-01-18 08:44:09 51°25.3 2°53.374 7.1259 3.305076 32.231396 -2.458615
2012-01-18 08:44:14 51°25.319 2°53.38 7.1291 3.306007 32.240598 -2.458615
2012-01-18 08:44:19 51°25.337 2°53.386 7.1314 3.306007 32.240598 -2.458615
2012-01-18 08:44:25 51°25.359 2°53.392 7.1292 3.306524 32.245324 -2.458615
2012-01-18 08:44:29 51°25.373 2°53.396 7.1325 3.306835 32.247813 -2.458615
2012-01-18 08:44:34 51°25.391 2°53.402 7.1347 3.307145 32.250301 -2.458615
2012-01-18 08:44:39 51°25.409 2°53.409 7.1337 3.307456 32.25279 -2.458615
2012-01-18 08:44:44 51°25.427 2°53.416 7.1362 3.307559 32.253041 -2.458615
2012-01-18 08:44:49 51°25.446 2°53.421 7.1353 3.307559 32.253041 -2.458615
2012-01-18 08:44:54 51°25.464 2°53.427 7.1377 3.308284 32.258268 -2.458615
2012-01-18 08:44:59 51°25.483 2°53.433 7.1369 3.308387 32.25765 -2.458615
2012-01-18 08:45:04 51°25.501 2°53.438 7.1402 3.308698 32.260138 -2.458615
2012-01-18 08:45:09 51°25.52 2°53.446 7.1406 3.309112 32.263745 -2.458615
2012-01-18 08:45:14 51°25.538 2°53.453 7.1406 3.310043 32.272076 -2.458615
2012-01-18 08:45:19 51°25.557 2°53.459 7.1423 3.310043 32.272076 -2.458615
2012-01-18 08:45:25 51°25.578 2°53.468 7.1429 3.310043 32.27034 -2.458615
2012-01-18 08:45:29 51°25.593 2°53.472 7.1414 3.310043 32.268603 -2.458615
2012-01-18 08:45:34 51°25.611 2°53.48 7.1424 3.31056 32.274196 -2.458615
2012-01-18 08:45:39 51°25.63 2°53.484 7.1455 3.311181 32.279171 -2.458615
2012-01-18 08:45:44 51°25.648 2°53.491 7.1457 3.311078 32.277184 -2.458615
2012-01-18 08:45:49 51°25.666 2°53.497 7.149 3.311078 32.277184 -2.458615
2012-01-18 08:45:54 51°25.684 2°53.503 7.1476 3.311181 32.277434 -2.458615
2012-01-18 08:45:59 51°25.703 2°53.508 7.1476 3.311181 32.277434 -2.458615
2012-01-18 08:46:04 51°25.722 2°53.514 7.1489 3.312009 32.286382 -2.458615
2012-01-18 08:46:09 51°25.74 2°53.518 7.1515 3.312009 32.284645 -2.458615
2012-01-18 08:46:14 51°25.758 2°53.523 7.156 3.312734 32.290737 -2.458615
2012-01-18 08:46:19 51°25.777 2°53.528 7.156 3.312734 32.290737 -2.458615
2012-01-18 08:46:25 51°25.799 2°53.534 7.1567 3.312527 32.287632 -2.458615
2012-01-18 08:46:29 51°25.814 2°53.538 7.1583 3.313251 32.294592 -2.458615
2012-01-18 08:46:34 51°25.832 2°53.544 7.1584 3.313355 32.295711 -2.458615
2012-01-18 08:46:40 51°25.854 2°53.549 7.1585 3.313458 32.295092 -2.458615
2012-01-18 08:46:45 51°25.873 2°53.554 7.1596 3.313975 32.299815 -2.458615
2012-01-18 08:46:49 51°25.887 2°53.56 7.1642 3.313975 32.299815 -2.458615
2012-01-18 08:46:54 51°25.906 2°53.562 7.1647 3.314596 32.303919 -2.458615
2012-01-18 08:46:59 51°25.924 2°53.571 7.1613 3.314286 32.298827 -2.458615
2012-01-18 08:47:05 51°25.947 2°53.575 7.1653 3.3147 32.301562 -2.458615
2012-01-18 08:47:09 51°25.962 2°53.581 7.1675 3.3147 32.300694 -2.458615
2012-01-18 08:47:14 51°25.98 2°53.588 7.1639 3.315528 32.308771 -2.458615
2012-01-18 08:47:20 51°26.002 2°53.597 7.1665 3.315735 32.309269 -2.458615
2012-01-18 08:47:25 51°26.021 2°53.604 7.1641 3.315735 32.309269 -2.458615
2012-01-18 08:47:29 51°26.036 2°53.61 7.164 3.316149 32.312005 -2.458615
2012-01-18 08:47:34 51°26.054 2°53.616 7.1643 3.31677 32.316976 -2.458615
2012-01-18 08:47:39 51°26.072 2°53.624 7.1629 3.316977 32.318343 -2.458615
2012-01-18 08:47:45 51°26.094 2°53.63 7.1631 3.317184 32.318841 -2.458615
2012-01-18 08:47:49 51°26.109 2°53.636 7.1635 3.317184 32.318841 -2.458615
2012-01-18 08:47:54 51°26.127 2°53.64 7.1659 3.317287 32.319091 -2.458615
2012-01-18 08:47:59 51°26.145 2°53.647 7.1689 3.317597 32.322444 -2.458615
2012-01-18 08:48:05 51°26.167 2°53.653 7.168 3.317804 32.325549 -2.458615
2012-01-18 08:48:09 51°26.182 2°53.659 7.1689 3.318115 32.329773 -2.458615
2012-01-18 08:48:14 51°26.2 2°53.665 7.1662 3.318425 32.333127 -2.458615
2012-01-18 08:48:19 51°26.218 2°53.672 7.1717 3.318425 32.333127 -2.458615
2012-01-18 08:48:25 51°26.24 2°53.679 7.1662 3.318425 32.333996 -2.458615
2012-01-18 08:48:29 51°26.255 2°53.687 7.1672 3.318529 32.334245 -2.458615
2012-01-18 08:48:35 51°26.277 2°53.693 7.1677 3.318839 32.335861 -2.458615
2012-01-18 08:48:39 51°26.291 2°53.7 7.1658 3.318425 32.32965 -2.458615
2012-01-18 08:48:44 51°26.31 2°53.703 7.1685 3.319046 32.33462 -2.458615
2012-01-18 08:48:49 51°26.328 2°53.711 7.1662 3.319046 32.33462 -2.458615
2012-01-18 08:48:54 51°26.346 2°53.717 7.1651 3.318839 32.332384 -2.458615
2012-01-18 08:49:00 51°26.368 2°53.724 7.1668 3.318529 32.329031 -2.458615
2012-01-18 08:49:05 51°26.386 2°53.73 7.1638 3.31915 32.336607 -2.458615
2012-01-18 08:49:09 51°26.401 2°53.736 7.1619 3.319253 32.338594 -2.458615
2012-01-18 08:49:13 51°26.416 2°53.74 7.1613 3.319046 32.336358 -2.458615
2012-01-18 08:49:19 51°26.438 2°53.746 7.1622 3.318943 32.334371 -2.458615
2012-01-18 08:49:25 51°26.46 2°53.753 7.1617 3.318943 32.334371 -2.458615
2012-01-18 08:49:29 51°26.475 2°53.757 7.164 3.319046 32.336358 -2.458615
2012-01-18 08:49:34 51°26.493 2°53.763 7.1669 3.319874 32.346172 -2.458615
2012-01-18 08:49:39 51°26.511 2°53.768 7.1672 3.319667 32.344805 -2.458615
2012-01-18 08:49:45 51°26.533 2°53.777 7.162 3.319253 32.342072 -2.458615
2012-01-18 08:49:49 51°26.548 2°53.779 7.1632 3.319253 32.342072 -2.458615
2012-01-18 08:49:54 51°26.566 2°53.788 7.16 3.319046 32.339835 -2.458615
2012-01-18 08:50:00 51°26.589 2°53.792 7.1647 3.318943 32.339587 -2.458615
2012-01-18 08:50:04 51°26.603 2°53.797 7.162 3.319253 32.342941 -2.458615
2012-01-18 08:50:09 51°26.622 2°53.802 7.1628 3.319357 32.34319 -2.458615
2012-01-18 08:50:13 51°26.636 2°53.807 7.1626 3.319357 32.34319 -2.458615
2012-01-18 08:50:19 51°26.658 2°53.814 7.1601 3.319357 32.34319 -2.458615
2012-01-18 08:50:24 51°26.677 2°53.819 7.1639 3.318839 32.335861 -2.458615
2012-01-18 08:50:29 51°26.695 2°53.827 7.1643 3.318736 32.336481 -2.458615
2012-01-18 08:50:34 51°26.714 2°53.832 7.1596 3.319046 32.339835 -2.458615
2012-01-18 08:50:39 51°26.733 2°53.839 7.1615 3.318839 32.337599 -2.458615
2012-01-18 08:50:45 51°26.756 2°53.844 7.1633 3.319357 32.34319 -2.458615
2012-01-18 08:50:49 51°26.771 2°53.851 7.1623 3.319357 32.34319 -2.458615
2012-01-18 08:50:54 51°26.79 2°53.856 7.1598 3.318943 32.339587 -2.458615
2012-01-18 08:51:00 51°26.812 2°53.866 7.1586 3.318736 32.336481 -2.458615
2012-01-18 08:51:05 51°26.83 2°53.873 7.1572 3.318736 32.336481 -2.458615
2012-01-18 08:51:09 51°26.845 2°53.878 7.1591 3.319564 32.346296 -2.458615
2012-01-18 08:51:13 51°26.86 2°53.883 7.1618 3.318839 32.338469 -2.458615
2012-01-18 08:51:19 51°26.882 2°53.893 7.1665 3.342747 32.596033 -2.458615
2012-01-18 08:51:25 51°26.904 2°53.902 7.1622 3.342747 32.596033 -2.458615
2012-01-18 08:51:29 51°26.919 2°53.908 7.1636 3.342643 32.59579 -2.458615
2012-01-18 08:51:34 51°26.937 2°53.915 7.1653 3.342436 32.593551 -2.458615
2012-01-18 08:51:39 51°26.956 2°53.922 7.1606 3.342436 32.595303 -2.458615
2012-01-18 08:51:45 51°26.978 2°53.931 7.1612 3.34254 32.596423 -2.458615
2012-01-18 08:51:49 51°26.992 2°53.936 7.163 3.34254 32.596423 -2.458615
2012-01-18 08:51:54 51°27.011 2°53.94 7.1647 3.342436 32.594427 -2.458615
2012-01-18 08:51:59 51°27.03 2°53.946 7.1642 3.34254 32.59467 -2.458615
2012-01-18 08:52:05 51°27.052 2°53.954 7.1679 3.34254 32.593794 -2.458615
2012-01-18 08:52:09 51°27.067 2°53.958 7.1676 3.342643 32.594913 -2.458615
2012-01-18 08:52:13 51°27.082 2°53.964 7.1648 3.34285 32.598028 -2.458615
2012-01-18 08:52:19 51°27.105 2°53.968 7.1687 3.34285 32.598028 -2.458615
2012-01-18 08:52:25 51°27.127 2°53.975 7.1689 3.342954 32.599148 -2.458615
2012-01-18 08:52:29 51°27.142 2°53.978 7.1689 3.343161 32.60051 -2.458615
2012-01-18 08:52:34 51°27.161 2°53.985 7.1757 3.343368 32.601873 -2.458615
2012-01-18 08:52:39 51°27.179 2°53.987 7.1696 3.343471 32.602116 -2.458615
2012-01-18 08:52:45 51°27.202 2°53.995 7.1685 3.343678 32.603478 -2.458615
2012-01-18 08:52:49 51°27.217 2°53.998 7.1671 3.343885 32.605717 -2.458615
2012-01-18 08:52:54 51°27.235 2°54.003 7.1705 3.343885 32.605717 -2.458615
2012-01-18 08:53:00 51°27.258 2°54.009 7.1722 3.344092 32.607079 -2.458615
2012-01-18 08:53:05 51°27.276 2°54.014 7.1714 3.344195 32.608198 -2.458615
2012-01-18 08:53:09 51°27.291 2°54.017 7.1762 3.344299 32.608441 -2.458615
2012-01-18 08:53:15 51°27.313 2°54.023 7.1767 3.344506 32.609803 -2.458615
2012-01-18 08:53:19 51°27.328 2°54.027 7.1794 3.344506 32.609803 -2.458615
2012-01-18 08:53:24 51°27.347 2°54.031 7.1819 3.344816 32.613161 -2.458615
2012-01-18 08:53:29 51°27.366 2°54.036 7.1852 3.34492 32.61428 -2.458615
2012-01-18 08:53:35 51°27.388 2°54.04 7.1868 3.345127 32.615642 -2.458615
2012-01-18 08:53:39 51°27.403 2°54.046 7.1877 3.345541 32.619243 -2.458615
2012-01-18 08:53:45 51°27.426 2°54.048 7.1889 3.345955 32.621967 -2.458615
2012-01-18 08:53:49 51°27.441 2°54.052 7.1918 3.345955 32.621967 -2.458615
2012-01-18 08:53:53 51°27.456 2°54.056 7.1898 3.346369 32.62469 -2.458615
2012-01-18 08:53:59 51°27.479 2°54.06 7.1898 3.346783 32.627413 -2.458615
2012-01-18 08:54:05 51°27.501 2°54.066 7.191 3.3473 32.630379 -2.458615
2012-01-18 08:54:09 51°27.517 2°54.069 7.1939 3.347921 32.63534 -2.458615
2012-01-18 08:54:14 51°27.536 2°54.072 7.1935 3.348128 32.635824 -2.458615
2012-01-18 08:54:19 51°27.555 2°54.077 7.192 3.348128 32.635824 -2.458615
2012-01-18 08:54:25 51°27.577 2°54.081 7.192 3.348853 32.641903 -2.458615
2012-01-18 08:54:29 51°27.592 2°54.084 7.1939 3.349267 32.644626 -2.458615
2012-01-18 08:54:34 51°27.611 2°54.088 7.196 3.349784 32.649343 -2.458615
2012-01-18 08:54:40 51°27.634 2°54.095 7.1913 3.350198 32.652942 -2.458615
2012-01-18 08:54:45 51°27.653 2°54.099 7.1912 3.350612 32.656541 -2.458615
2012-01-18 08:54:49 51°27.668 2°54.103 7.1951 3.350612 32.656541 -2.458615
2012-01-18 08:54:53 51°27.683 2°54.108 7.1964 3.350819 32.657902 -2.458615
2012-01-18 08:54:59 51°27.706 2°54.113 7.1962 3.35113 32.660381 -2.458615
2012-01-18 08:55:04 51°27.725 2°54.12 7.1953 3.35144 32.662861 -2.458615
2012-01-18 08:55:09 51°27.744 2°54.126 7.1955 3.35144 32.662861 -2.458615
2012-01-18 08:55:14 51°27.763 2°54.132 7.1973 3.351544 32.66398 -2.458615
2012-01-18 08:55:19 51°27.783 2°54.138 7.198 3.351544 32.66398 -2.458615
2012-01-18 08:55:25 51°27.806 2°54.145 7.1985 3.351544 32.66398 -2.458615
2012-01-18 08:55:29 51°27.821 2°54.148 7.2022 3.351544 32.662225 -2.458615
2012-01-18 08:55:34 51°27.839 2°54.155 7.2056 3.351647 32.662467 -2.458615
2012-01-18 08:55:39 51°27.859 2°54.161 7.2082 3.351751 32.662708 -2.458615
2012-01-18 08:55:45 51°27.881 2°54.169 7.2151 3.351854 32.663827 -2.458615
2012-01-18 08:55:49 51°27.897 2°54.173 7.2135 3.351854 32.663827 -2.458615
2012-01-18 08:55:53 51°27.912 2°54.177 7.2176 3.351958 32.664946 -2.458615
2012-01-18 08:55:59 51°27.935 2°54.186 7.2223 3.352372 32.667666 -2.458615
2012-01-18 08:56:05 51°27.958 2°54.19 7.2278 3.352682 32.670145 -2.458615
2012-01-18 08:56:09 51°27.973 2°54.197 7.2304 3.352992 32.67087 -2.458615
2012-01-18 08:56:14 51°27.992 2°54.201 7.231 3.353406 32.672713 -2.458615
2012-01-18 08:56:19 51°28.011 2°54.208 7.2362 3.353406 32.672713 -2.458615
2012-01-18 08:56:25 51°28.033 2°54.212 7.2427 3.354131 32.677034 -2.458615
2012-01-18 08:56:29 51°28.048 2°54.218 7.2475 3.354648 32.679994 -2.458615
2012-01-18 08:56:34 51°28.067 2°54.222 7.2517 3.355476 32.685433 -2.458615
2012-01-18 08:56:39 51°28.086 2°54.226 7.2573 3.356408 32.691111 -2.458615
2012-01-18 08:56:44 51°28.105 2°54.231 7.2631 3.357132 32.69543 -2.458615
2012-01-18 08:56:49 51°28.124 2°54.235 7.2691 3.357132 32.69543 -2.458615
2012-01-18 08:56:53 51°28.138 2°54.24 7.2724 3.35796 32.700866 -2.458615
2012-01-18 08:56:59 51°28.161 2°54.247 7.2768 3.358788 32.706301 -2.458615
2012-01-18 08:57:04 51°28.179 2°54.251 7.2804 3.359927 32.713334 -2.458615
2012-01-18 08:57:09 51°28.198 2°54.257 7.2836 3.361065 32.721243 -2.458615
2012-01-18 08:57:14 51°28.216 2°54.259 7.2883 3.362307 32.729391 -2.458615
2012-01-18 08:57:19 51°28.235 2°54.264 7.2921 3.362307 32.729391 -2.458615
2012-01-18 08:57:25 51°28.257 2°54.268 7.2946 3.363549 32.73666 -2.458615
2012-01-18 08:57:29 51°28.272 2°54.273 7.2981 3.364687 32.743687 -2.458615
2012-01-18 08:57:34 51°28.291 2°54.278 7.2979 3.365722 32.750472 -2.458615
2012-01-18 08:57:40 51°28.314 2°54.284 7.2997 3.366964 32.758613 -2.458615
2012-01-18 08:57:45 51°28.332 2°54.288 7.3017 3.368206 32.767631 -2.458615
2012-01-18 08:57:49 51°28.347 2°54.294 7.3042 3.368206 32.767631 -2.458615
2012-01-18 08:57:53 51°28.362 2°54.298 7.306 3.369241 32.773534 -2.458615
2012-01-18 08:57:59 51°28.384 2°54.303 7.3104 3.370173 32.780076 -2.458615
2012-01-18 08:58:05 51°28.407 2°54.309 7.3089 3.371208 32.787733 -2.458615
2012-01-18 08:58:09 51°28.421 2°54.312 7.3116 3.372036 32.794034 -2.458615
2012-01-18 08:58:14 51°28.439 2°54.317 7.3127 3.372967 32.800572 -2.458615
2012-01-18 08:58:19 51°28.457 2°54.321 7.3148 3.372967 32.800572 -2.458615
2012-01-18 08:58:25 51°28.48 2°54.327 7.3146 3.373692 32.806633 -2.458615
2012-01-18 08:58:29 51°28.495 2°54.329 7.319 3.37452 32.812932 -2.458615
2012-01-18 08:58:34 51°28.513 2°54.333 7.3214 3.375037 32.81588 -2.458615
2012-01-18 08:58:39 51°28.532 2°54.337 7.3242 3.375555 32.819706 -2.458615
2012-01-18 08:58:45 51°28.554 2°54.341 7.3281 3.376176 32.824649 -2.458615
2012-01-18 08:58:49 51°28.569 2°54.346 7.3299 3.376176 32.824649 -2.458615
2012-01-18 08:58:53 51°28.584 2°54.345 7.3336 3.3769 32.829829 -2.458615
2012-01-18 08:58:59 51°28.606 2°54.353 7.3372 3.377211 32.8323 -2.458615
2012-01-18 08:59:05 51°28.628 2°54.356 7.338 3.377728 32.835246 -2.458615
2012-01-18 08:59:09 51°28.643 2°54.36 7.34 3.378349 32.839308 -2.458615
2012-01-18 08:59:14 51°28.661 2°54.363 7.3424 3.378867 32.842254 -2.458615
2012-01-18 08:59:19 51°28.68 2°54.368 7.3448 3.378867 32.842254 -2.458615
2012-01-18 08:59:25 51°28.702 2°54.371 7.3477 3.379488 32.846316 -2.458615
2012-01-18 08:59:29 51°28.717 2°54.377 7.3502 3.380109 32.849498 -2.458615
2012-01-18 08:59:34 51°28.735 2°54.382 7.3539 3.380523 32.849569 -2.458615
2012-01-18 08:59:39 51°28.753 2°54.389 7.351 3.381247 32.854745 -2.458615
2012-01-18 08:59:45 51°28.776 2°54.394 7.3525 3.382282 32.86239 -2.458615
2012-01-18 08:59:49 51°28.791 2°54.399 7.3547 3.382282 32.86239 -2.458615
2012-01-18 08:59:54 51°28.809 2°54.404 7.3538 3.38311 32.868681 -2.458615
2012-01-18 08:59:59 51°28.828 2°54.409 7.3543 3.383731 32.87274 -2.458615
2012-01-18 09:00:05 51°28.85 2°54.414 7.3558 3.384456 32.877035 -2.458615
2012-01-18 09:00:09 51°28.864 2°54.419 7.3591 3.385077 32.881971 -2.458615
2012-01-18 09:00:14 51°28.883 2°54.419 7.3639 3.385698 32.886908 -2.458615
2012-01-18 09:00:19 51°28.901 2°54.426 7.3603 3.385698 32.886908 -2.458615
2012-01-18 09:00:25 51°28.923 2°54.431 7.3611 3.386526 32.894954 -2.458615
2012-01-18 09:00:29 51°28.937 2°54.435 7.3665 3.386836 32.897422 -2.458615
2012-01-18 09:00:34 51°28.956 2°54.44 7.3717 3.38725 32.901006 -2.458615
2012-01-18 09:00:40 51°28.978 2°54.447 7.3796 3.387768 32.905705 -2.458615
2012-01-18 09:00:45 51°28.997 2°54.45 7.3854 3.388078 32.907293 -2.458615
2012-01-18 09:00:49 51°29.011 2°54.455 7.3917 3.388078 32.907293 -2.458615
2012-01-18 09:00:54 51°29.03 2°54.456 7.398 3.388182 32.90577 -2.458615
2012-01-18 09:00:59 51°29.048 2°54.462 7.405 3.388699 32.909589 -2.458615
2012-01-18 09:01:05 51°29.07 2°54.464 7.4103 3.388906 32.910061 -2.458615
2012-01-18 09:01:09 51°29.084 2°54.466 7.4137 3.389631 32.914352 -2.458615
2012-01-18 09:01:14 51°29.103 2°54.47 7.4194 3.390666 32.921108 -2.458615
2012-01-18 09:01:19 51°29.121 2°54.469 7.4237 3.390666 32.921108 -2.458615
2012-01-18 09:01:25 51°29.143 2°54.473 7.4284 3.391804 32.92634 -2.458615
2012-01-18 09:01:29 51°29.158 2°54.473 7.4327 3.392839 32.932215 -2.458615
2012-01-18 09:01:34 51°29.176 2°54.475 7.4358 3.394288 32.942547 -2.458615
2012-01-18 09:01:39 51°29.194 2°54.477 7.4392 3.395634 32.950883 -2.458615
2012-01-18 09:01:45 51°29.217 2°54.479 7.4439 3.396979 32.960097 -2.458615
2012-01-18 09:01:49 51°29.232 2°54.48 7.4464 3.398428 32.968663 -2.458615
2012-01-18 09:01:54 51°29.25 2°54.481 7.4492 3.398428 32.968663 -2.458615
2012-01-18 09:02:00 51°29.273 2°54.483 7.4525 3.399774 32.977873 -2.458615
2012-01-18 09:02:05 51°29.292 2°54.484 7.4551 3.40112 32.98708 -2.458615
2012-01-18 09:02:09 51°29.306 2°54.486 7.459 3.402051 32.992709 -2.458615
2012-01-18 09:02:13 51°29.321 2°54.487 7.462 3.403397 33.002793 -2.458615
2012-01-18 09:02:19 51°29.343 2°54.487 7.466 3.403397 33.002793 -2.458615
2012-01-18 09:02:25 51°29.365 2°54.489 7.4676 3.404328 33.007539 -2.458615
2012-01-18 09:02:29 51°29.38 2°54.489 7.4719 3.40557 33.016505 -2.458615
2012-01-18 09:02:34 51°29.398 2°54.489 7.4759 3.406502 33.02389 -2.458615
2012-01-18 09:02:39 51°29.417 2°54.491 7.4777 3.407123 33.027051 -2.458615
2012-01-18 09:02:45 51°29.439 2°54.491 7.4792 3.407951 33.03244 -2.458615
2012-01-18 09:02:49 51°29.454 2°54.491 7.4822 3.407951 33.03244 -2.458615
2012-01-18 09:02:54 51°29.472 2°54.492 7.4862 3.408779 33.037828 -2.458615
2012-01-18 09:03:00 51°29.494 2°54.493 7.4859 3.409814 33.045442 -2.458615
2012-01-18 09:03:05 51°29.513 2°54.493 7.489 3.410745 33.051061 -2.458615
2012-01-18 09:03:09 51°29.528 2°54.494 7.4921 3.41147 33.056214 -2.458615
2012-01-18 09:03:14 51°29.546 2°54.495 7.4972 3.412091 33.058491 -2.458615